<?xml version="1.0" encoding="UTF-8" standalone="no" ?>
<gpx xmlns="http://www.topografix.com/GPX/1/1" xmlns:xsi="http://www.w3.org/2001/XMLSchema-instance" xsi:schemaLocation="http://www.topografix.com/GPX/1/1 http://www.topografix.com/GPX/1/1/gpx.xsd" version="1.1" creator="VisuGPX - https://www.visugpx.com">
  <metadata>
    <name>Cirque de l'Infernet (France)</name>
    <desc><![CDATA[Cette randonnée au départ du charmant village de Saint Guilhem le Désert permet de découvrir les falaises les plus impressionnantes du département. Les paysages sont variés et parfois magnifiques.]]></desc>
  </metadata>
  <trk>
    <name><![CDATA[Cirque de l'Infernet]]></name>
    <desc><![CDATA[<p>Heure de départ: 03/19/2017 09:25<br/>Heure d'arrivée: 03/19/2017 14:42<br/>Distance: 17,6 km (05:16)<br/>Temps déplacement: 04:13<br/>Vitesse moyenne: 3,33 km/h<br/>Vitesse moyenne mouv.: 4,16 km/h<br/>Vitesse Max.: 7,14 km/h<br/>Altitude minimale: 90 m<br/>Altitude maximale: 594 m<br/>Vitesse de montée: 302,4 m/h<br/>Vitesse de descente: -268,7 m/h<br/>Gain d'altitude: 739 m<br/>Perte d'altitude: -710 m<br/>Temps de montée: 02:26<br/>Temps de descente: 02:38<br/></p><hr align="center" width="480" style="height: 2px; width: 517px"/>]]></desc>
    <trkseg>
      <trkpt lat="43.73535" lon="3.54783">
        <ele>92.94</ele>
        <time>2017-03-19T08:25:48Z</time>
      </trkpt>
      <trkpt lat="43.73516" lon="3.54785">
        <ele>90.92</ele>
        <time>2017-03-19T08:26:51Z</time>
      </trkpt>
      <trkpt lat="43.73524" lon="3.54808">
        <ele>94.01</ele>
        <time>2017-03-19T08:27:06Z</time>
      </trkpt>
      <trkpt lat="43.73543" lon="3.54802">
        <ele>96.96</ele>
        <time>2017-03-19T08:27:25Z</time>
      </trkpt>
      <trkpt lat="43.7356" lon="3.54791">
        <ele>96.64</ele>
        <time>2017-03-19T08:27:37Z</time>
      </trkpt>
      <trkpt lat="43.73578" lon="3.54788">
        <ele>96.75</ele>
        <time>2017-03-19T08:27:53Z</time>
      </trkpt>
      <trkpt lat="43.73597" lon="3.54786">
        <ele>92.97</ele>
        <time>2017-03-19T08:28:27Z</time>
      </trkpt>
      <trkpt lat="43.73616" lon="3.54784">
        <ele>93.89</ele>
        <time>2017-03-19T08:28:42Z</time>
      </trkpt>
      <trkpt lat="43.73635" lon="3.5478">
        <ele>95.98</ele>
        <time>2017-03-19T08:28:51Z</time>
      </trkpt>
      <trkpt lat="43.73653" lon="3.54775">
        <ele>97.19</ele>
        <time>2017-03-19T08:29:03Z</time>
      </trkpt>
      <trkpt lat="43.73667" lon="3.5476">
        <ele>101.34</ele>
        <time>2017-03-19T08:29:18Z</time>
      </trkpt>
      <trkpt lat="43.7367" lon="3.54735">
        <ele>103.67</ele>
        <time>2017-03-19T08:29:31Z</time>
      </trkpt>
      <trkpt lat="43.73668" lon="3.54709">
        <ele>105.24</ele>
        <time>2017-03-19T08:29:49Z</time>
      </trkpt>
      <trkpt lat="43.7367" lon="3.54684">
        <ele>108.77</ele>
        <time>2017-03-19T08:30:04Z</time>
      </trkpt>
      <trkpt lat="43.73679" lon="3.5466">
        <ele>109.75</ele>
        <time>2017-03-19T08:30:22Z</time>
      </trkpt>
      <trkpt lat="43.73659" lon="3.54655">
        <ele>108.75</ele>
        <time>2017-03-19T08:30:47Z</time>
      </trkpt>
      <trkpt lat="43.73647" lon="3.54635">
        <ele>108.93</ele>
        <time>2017-03-19T08:31:07Z</time>
      </trkpt>
      <trkpt lat="43.73646" lon="3.54609">
        <ele>107.79</ele>
        <time>2017-03-19T08:31:26Z</time>
      </trkpt>
      <trkpt lat="43.73641" lon="3.54584">
        <ele>103.93</ele>
        <time>2017-03-19T08:31:46Z</time>
      </trkpt>
      <trkpt lat="43.73638" lon="3.54559">
        <ele>105.6</ele>
        <time>2017-03-19T08:32:07Z</time>
      </trkpt>
      <trkpt lat="43.73638" lon="3.54534">
        <ele>108.79</ele>
        <time>2017-03-19T08:32:26Z</time>
      </trkpt>
      <trkpt lat="43.73638" lon="3.54508">
        <ele>112.25</ele>
        <time>2017-03-19T08:32:45Z</time>
      </trkpt>
      <trkpt lat="43.73643" lon="3.54484">
        <ele>116.96</ele>
        <time>2017-03-19T08:33:04Z</time>
      </trkpt>
      <trkpt lat="43.73645" lon="3.54458">
        <ele>121.59</ele>
        <time>2017-03-19T08:33:24Z</time>
      </trkpt>
      <trkpt lat="43.7365" lon="3.54434">
        <ele>125.34</ele>
        <time>2017-03-19T08:33:45Z</time>
      </trkpt>
      <trkpt lat="43.73646" lon="3.54408">
        <ele>126.86</ele>
        <time>2017-03-19T08:34:04Z</time>
      </trkpt>
      <trkpt lat="43.73636" lon="3.54429">
        <ele>129.34</ele>
        <time>2017-03-19T08:34:23Z</time>
      </trkpt>
      <trkpt lat="43.73629" lon="3.54454">
        <ele>131.72</ele>
        <time>2017-03-19T08:34:38Z</time>
      </trkpt>
      <trkpt lat="43.73617" lon="3.54473">
        <ele>134.43</ele>
        <time>2017-03-19T08:34:57Z</time>
      </trkpt>
      <trkpt lat="43.73611" lon="3.54449">
        <ele>138.27</ele>
        <time>2017-03-19T08:35:17Z</time>
      </trkpt>
      <trkpt lat="43.73615" lon="3.54425">
        <ele>140.61</ele>
        <time>2017-03-19T08:35:34Z</time>
      </trkpt>
      <trkpt lat="43.73615" lon="3.54398">
        <ele>142.95</ele>
        <time>2017-03-19T08:35:52Z</time>
      </trkpt>
      <trkpt lat="43.73617" lon="3.54372">
        <ele>147.65</ele>
        <time>2017-03-19T08:36:14Z</time>
      </trkpt>
      <trkpt lat="43.73611" lon="3.54345">
        <ele>148.74</ele>
        <time>2017-03-19T08:36:29Z</time>
      </trkpt>
      <trkpt lat="43.73619" lon="3.54321">
        <ele>151.22</ele>
        <time>2017-03-19T08:36:44Z</time>
      </trkpt>
      <trkpt lat="43.73625" lon="3.54296">
        <ele>152.98</ele>
        <time>2017-03-19T08:37:01Z</time>
      </trkpt>
      <trkpt lat="43.73633" lon="3.54273">
        <ele>154.2</ele>
        <time>2017-03-19T08:37:16Z</time>
      </trkpt>
      <trkpt lat="43.73641" lon="3.54251">
        <ele>156.9</ele>
        <time>2017-03-19T08:37:32Z</time>
      </trkpt>
      <trkpt lat="43.73643" lon="3.54226">
        <ele>159.79</ele>
        <time>2017-03-19T08:37:47Z</time>
      </trkpt>
      <trkpt lat="43.73636" lon="3.54201">
        <ele>163.15</ele>
        <time>2017-03-19T08:38:04Z</time>
      </trkpt>
      <trkpt lat="43.73627" lon="3.5418">
        <ele>164.81</ele>
        <time>2017-03-19T08:38:19Z</time>
      </trkpt>
      <trkpt lat="43.73621" lon="3.54156">
        <ele>168.62</ele>
        <time>2017-03-19T08:38:41Z</time>
      </trkpt>
      <trkpt lat="43.73613" lon="3.54181">
        <ele>172.88</ele>
        <time>2017-03-19T08:39:18Z</time>
      </trkpt>
      <trkpt lat="43.73614" lon="3.54207">
        <ele>175.18</ele>
        <time>2017-03-19T08:39:37Z</time>
      </trkpt>
      <trkpt lat="43.73611" lon="3.54232">
        <ele>177.22</ele>
        <time>2017-03-19T08:39:51Z</time>
      </trkpt>
      <trkpt lat="43.73606" lon="3.54257">
        <ele>179.94</ele>
        <time>2017-03-19T08:40:09Z</time>
      </trkpt>
      <trkpt lat="43.73595" lon="3.54235">
        <ele>183.31</ele>
        <time>2017-03-19T08:40:31Z</time>
      </trkpt>
      <trkpt lat="43.73588" lon="3.54212">
        <ele>185.75</ele>
        <time>2017-03-19T08:40:48Z</time>
      </trkpt>
      <trkpt lat="43.73579" lon="3.54189">
        <ele>188.71</ele>
        <time>2017-03-19T08:41:06Z</time>
      </trkpt>
      <trkpt lat="43.73567" lon="3.5417">
        <ele>190.57</ele>
        <time>2017-03-19T08:41:24Z</time>
      </trkpt>
      <trkpt lat="43.73558" lon="3.54147">
        <ele>194.21</ele>
        <time>2017-03-19T08:41:45Z</time>
      </trkpt>
      <trkpt lat="43.73545" lon="3.54128">
        <ele>199.71</ele>
        <time>2017-03-19T08:42:10Z</time>
      </trkpt>
      <trkpt lat="43.73537" lon="3.54105">
        <ele>204.21</ele>
        <time>2017-03-19T08:42:29Z</time>
      </trkpt>
      <trkpt lat="43.73534" lon="3.54081">
        <ele>205.99</ele>
        <time>2017-03-19T08:42:37Z</time>
      </trkpt>
      <trkpt lat="43.7353" lon="3.54054">
        <ele>209.38</ele>
        <time>2017-03-19T08:42:55Z</time>
      </trkpt>
      <trkpt lat="43.73521" lon="3.54028">
        <ele>211.93</ele>
        <time>2017-03-19T08:43:15Z</time>
      </trkpt>
      <trkpt lat="43.73509" lon="3.54008">
        <ele>215.45</ele>
        <time>2017-03-19T08:43:40Z</time>
      </trkpt>
      <trkpt lat="43.73522" lon="3.53989">
        <ele>219.92</ele>
        <time>2017-03-19T08:44:15Z</time>
      </trkpt>
      <trkpt lat="43.73541" lon="3.53985">
        <ele>220.77</ele>
        <time>2017-03-19T08:44:29Z</time>
      </trkpt>
      <trkpt lat="43.73558" lon="3.53978">
        <ele>221.33</ele>
        <time>2017-03-19T08:44:46Z</time>
      </trkpt>
      <trkpt lat="43.73576" lon="3.53967">
        <ele>223.45</ele>
        <time>2017-03-19T08:45:04Z</time>
      </trkpt>
      <trkpt lat="43.73588" lon="3.53946">
        <ele>226.95</ele>
        <time>2017-03-19T08:46:08Z</time>
      </trkpt>
      <trkpt lat="43.73596" lon="3.53922">
        <ele>227.02</ele>
        <time>2017-03-19T08:46:32Z</time>
      </trkpt>
      <trkpt lat="43.73609" lon="3.53904">
        <ele>222.29</ele>
        <time>2017-03-19T08:47:56Z</time>
      </trkpt>
      <trkpt lat="43.7362" lon="3.53883">
        <ele>221.32</ele>
        <time>2017-03-19T08:48:14Z</time>
      </trkpt>
      <trkpt lat="43.7363" lon="3.53862">
        <ele>225.48</ele>
        <time>2017-03-19T08:48:34Z</time>
      </trkpt>
      <trkpt lat="43.73638" lon="3.53837">
        <ele>228.16</ele>
        <time>2017-03-19T08:48:50Z</time>
      </trkpt>
      <trkpt lat="43.73636" lon="3.53811">
        <ele>231.63</ele>
        <time>2017-03-19T08:49:07Z</time>
      </trkpt>
      <trkpt lat="43.73634" lon="3.53786">
        <ele>233.81</ele>
        <time>2017-03-19T08:49:23Z</time>
      </trkpt>
      <trkpt lat="43.73635" lon="3.5376">
        <ele>238.04</ele>
        <time>2017-03-19T08:49:43Z</time>
      </trkpt>
      <trkpt lat="43.73632" lon="3.53735">
        <ele>238.86</ele>
        <time>2017-03-19T08:49:59Z</time>
      </trkpt>
      <trkpt lat="43.73625" lon="3.53711">
        <ele>239.52</ele>
        <time>2017-03-19T08:50:17Z</time>
      </trkpt>
      <trkpt lat="43.73614" lon="3.5369">
        <ele>243.12</ele>
        <time>2017-03-19T08:50:36Z</time>
      </trkpt>
      <trkpt lat="43.73615" lon="3.53665">
        <ele>247.39</ele>
        <time>2017-03-19T08:50:53Z</time>
      </trkpt>
      <trkpt lat="43.73613" lon="3.53639">
        <ele>250.54</ele>
        <time>2017-03-19T08:51:12Z</time>
      </trkpt>
      <trkpt lat="43.73611" lon="3.53615">
        <ele>252.57</ele>
        <time>2017-03-19T08:51:27Z</time>
      </trkpt>
      <trkpt lat="43.73608" lon="3.53589">
        <ele>254.36</ele>
        <time>2017-03-19T08:51:43Z</time>
      </trkpt>
      <trkpt lat="43.73605" lon="3.53565">
        <ele>255.83</ele>
        <time>2017-03-19T08:52:02Z</time>
      </trkpt>
      <trkpt lat="43.73611" lon="3.5354">
        <ele>257.01</ele>
        <time>2017-03-19T08:52:16Z</time>
      </trkpt>
      <trkpt lat="43.73606" lon="3.53515">
        <ele>257.75</ele>
        <time>2017-03-19T08:52:29Z</time>
      </trkpt>
      <trkpt lat="43.73604" lon="3.5349">
        <ele>259.14</ele>
        <time>2017-03-19T08:52:45Z</time>
      </trkpt>
      <trkpt lat="43.7361" lon="3.53466">
        <ele>259.09</ele>
        <time>2017-03-19T08:53:02Z</time>
      </trkpt>
      <trkpt lat="43.7361" lon="3.5344">
        <ele>259.02</ele>
        <time>2017-03-19T08:53:16Z</time>
      </trkpt>
      <trkpt lat="43.73611" lon="3.53415">
        <ele>259.44</ele>
        <time>2017-03-19T08:53:31Z</time>
      </trkpt>
      <trkpt lat="43.73611" lon="3.5339">
        <ele>259.68</ele>
        <time>2017-03-19T08:53:50Z</time>
      </trkpt>
      <trkpt lat="43.73617" lon="3.53365">
        <ele>260.64</ele>
        <time>2017-03-19T08:54:04Z</time>
      </trkpt>
      <trkpt lat="43.73619" lon="3.53339">
        <ele>261.56</ele>
        <time>2017-03-19T08:54:19Z</time>
      </trkpt>
      <trkpt lat="43.73626" lon="3.53314">
        <ele>264.59</ele>
        <time>2017-03-19T08:54:40Z</time>
      </trkpt>
      <trkpt lat="43.73634" lon="3.53292">
        <ele>266.21</ele>
        <time>2017-03-19T08:54:56Z</time>
      </trkpt>
      <trkpt lat="43.73641" lon="3.53267">
        <ele>267.67</ele>
        <time>2017-03-19T08:55:15Z</time>
      </trkpt>
      <trkpt lat="43.73646" lon="3.53242">
        <ele>270.61</ele>
        <time>2017-03-19T08:55:31Z</time>
      </trkpt>
      <trkpt lat="43.7365" lon="3.53217">
        <ele>274.85</ele>
        <time>2017-03-19T08:55:47Z</time>
      </trkpt>
      <trkpt lat="43.73651" lon="3.53191">
        <ele>278.85</ele>
        <time>2017-03-19T08:56:05Z</time>
      </trkpt>
      <trkpt lat="43.73655" lon="3.53166">
        <ele>281.33</ele>
        <time>2017-03-19T08:56:25Z</time>
      </trkpt>
      <trkpt lat="43.73662" lon="3.53143">
        <ele>282.5</ele>
        <time>2017-03-19T08:56:45Z</time>
      </trkpt>
      <trkpt lat="43.73666" lon="3.53118">
        <ele>279.67</ele>
        <time>2017-03-19T08:58:26Z</time>
      </trkpt>
      <trkpt lat="43.73683" lon="3.53111">
        <ele>283.57</ele>
        <time>2017-03-19T08:58:46Z</time>
      </trkpt>
      <trkpt lat="43.73694" lon="3.53091">
        <ele>286.53</ele>
        <time>2017-03-19T08:59:01Z</time>
      </trkpt>
      <trkpt lat="43.73712" lon="3.53078">
        <ele>290.41</ele>
        <time>2017-03-19T08:59:28Z</time>
      </trkpt>
      <trkpt lat="43.73727" lon="3.53062">
        <ele>291.74</ele>
        <time>2017-03-19T08:59:44Z</time>
      </trkpt>
      <trkpt lat="43.73745" lon="3.53053">
        <ele>292.72</ele>
        <time>2017-03-19T09:00:08Z</time>
      </trkpt>
      <trkpt lat="43.73755" lon="3.53033">
        <ele>292.72</ele>
        <time>2017-03-19T09:01:16Z</time>
      </trkpt>
      <trkpt lat="43.73772" lon="3.53021">
        <ele>294.99</ele>
        <time>2017-03-19T09:01:41Z</time>
      </trkpt>
      <trkpt lat="43.73787" lon="3.53007">
        <ele>297.91</ele>
        <time>2017-03-19T09:02:04Z</time>
      </trkpt>
      <trkpt lat="43.73806" lon="3.53009">
        <ele>299.48</ele>
        <time>2017-03-19T09:02:20Z</time>
      </trkpt>
      <trkpt lat="43.73799" lon="3.52985">
        <ele>303.86</ele>
        <time>2017-03-19T09:03:09Z</time>
      </trkpt>
      <trkpt lat="43.73781" lon="3.52981">
        <ele>333.88</ele>
        <time>2017-03-19T09:04:31Z</time>
      </trkpt>
      <trkpt lat="43.73771" lon="3.5296">
        <ele>331.35</ele>
        <time>2017-03-19T09:04:56Z</time>
      </trkpt>
      <trkpt lat="43.73791" lon="3.52963">
        <ele>336.97</ele>
        <time>2017-03-19T09:05:38Z</time>
      </trkpt>
      <trkpt lat="43.73809" lon="3.52968">
        <ele>341.17</ele>
        <time>2017-03-19T09:07:00Z</time>
      </trkpt>
      <trkpt lat="43.73824" lon="3.52981">
        <ele>342.6</ele>
        <time>2017-03-19T09:07:25Z</time>
      </trkpt>
      <trkpt lat="43.73818" lon="3.53005">
        <ele>347.65</ele>
        <time>2017-03-19T09:07:46Z</time>
      </trkpt>
      <trkpt lat="43.73827" lon="3.53027">
        <ele>350.17</ele>
        <time>2017-03-19T09:08:00Z</time>
      </trkpt>
      <trkpt lat="43.73841" lon="3.53044">
        <ele>349.97</ele>
        <time>2017-03-19T09:08:12Z</time>
      </trkpt>
      <trkpt lat="43.7386" lon="3.53048">
        <ele>348.95</ele>
        <time>2017-03-19T09:08:41Z</time>
      </trkpt>
      <trkpt lat="43.73879" lon="3.5305">
        <ele>347.68</ele>
        <time>2017-03-19T09:08:57Z</time>
      </trkpt>
      <trkpt lat="43.73899" lon="3.53049">
        <ele>345.52</ele>
        <time>2017-03-19T09:09:14Z</time>
      </trkpt>
      <trkpt lat="43.73917" lon="3.5305">
        <ele>344.51</ele>
        <time>2017-03-19T09:09:28Z</time>
      </trkpt>
      <trkpt lat="43.73935" lon="3.53041">
        <ele>343.74</ele>
        <time>2017-03-19T09:09:41Z</time>
      </trkpt>
      <trkpt lat="43.73945" lon="3.53019">
        <ele>342.42</ele>
        <time>2017-03-19T09:09:57Z</time>
      </trkpt>
      <trkpt lat="43.73947" lon="3.52993">
        <ele>341.1</ele>
        <time>2017-03-19T09:10:13Z</time>
      </trkpt>
      <trkpt lat="43.73947" lon="3.52968">
        <ele>340.84</ele>
        <time>2017-03-19T09:10:27Z</time>
      </trkpt>
      <trkpt lat="43.73949" lon="3.52942">
        <ele>339.56</ele>
        <time>2017-03-19T09:10:45Z</time>
      </trkpt>
      <trkpt lat="43.73952" lon="3.52916">
        <ele>338.15</ele>
        <time>2017-03-19T09:11:01Z</time>
      </trkpt>
      <trkpt lat="43.73955" lon="3.52891">
        <ele>337.7</ele>
        <time>2017-03-19T09:11:19Z</time>
      </trkpt>
      <trkpt lat="43.73958" lon="3.52867">
        <ele>336.87</ele>
        <time>2017-03-19T09:11:35Z</time>
      </trkpt>
      <trkpt lat="43.7396" lon="3.52842">
        <ele>335.81</ele>
        <time>2017-03-19T09:11:49Z</time>
      </trkpt>
      <trkpt lat="43.7396" lon="3.52817">
        <ele>334.44</ele>
        <time>2017-03-19T09:12:10Z</time>
      </trkpt>
      <trkpt lat="43.73973" lon="3.52799">
        <ele>333.04</ele>
        <time>2017-03-19T09:12:25Z</time>
      </trkpt>
      <trkpt lat="43.73972" lon="3.52771">
        <ele>331.05</ele>
        <time>2017-03-19T09:12:37Z</time>
      </trkpt>
      <trkpt lat="43.7397" lon="3.52744">
        <ele>328.24</ele>
        <time>2017-03-19T09:12:52Z</time>
      </trkpt>
      <trkpt lat="43.73966" lon="3.52719">
        <ele>326.36</ele>
        <time>2017-03-19T09:13:06Z</time>
      </trkpt>
      <trkpt lat="43.73961" lon="3.52694">
        <ele>323.43</ele>
        <time>2017-03-19T09:13:26Z</time>
      </trkpt>
      <trkpt lat="43.73955" lon="3.5267">
        <ele>320.88</ele>
        <time>2017-03-19T09:13:46Z</time>
      </trkpt>
      <trkpt lat="43.73948" lon="3.52644">
        <ele>318.8</ele>
        <time>2017-03-19T09:14:04Z</time>
      </trkpt>
      <trkpt lat="43.73949" lon="3.52617">
        <ele>317.57</ele>
        <time>2017-03-19T09:14:22Z</time>
      </trkpt>
      <trkpt lat="43.73936" lon="3.52598">
        <ele>316.66</ele>
        <time>2017-03-19T09:14:39Z</time>
      </trkpt>
      <trkpt lat="43.73923" lon="3.52581">
        <ele>315.94</ele>
        <time>2017-03-19T09:14:54Z</time>
      </trkpt>
      <trkpt lat="43.73936" lon="3.52562">
        <ele>314.32</ele>
        <time>2017-03-19T09:15:21Z</time>
      </trkpt>
      <trkpt lat="43.73943" lon="3.52538">
        <ele>312.99</ele>
        <time>2017-03-19T09:15:35Z</time>
      </trkpt>
      <trkpt lat="43.73942" lon="3.52512">
        <ele>311.89</ele>
        <time>2017-03-19T09:15:52Z</time>
      </trkpt>
      <trkpt lat="43.7393" lon="3.52492">
        <ele>311.96</ele>
        <time>2017-03-19T09:16:06Z</time>
      </trkpt>
      <trkpt lat="43.73938" lon="3.52469">
        <ele>311.76</ele>
        <time>2017-03-19T09:16:20Z</time>
      </trkpt>
      <trkpt lat="43.73933" lon="3.52444">
        <ele>310.94</ele>
        <time>2017-03-19T09:16:34Z</time>
      </trkpt>
      <trkpt lat="43.73927" lon="3.52419">
        <ele>308.45</ele>
        <time>2017-03-19T09:16:50Z</time>
      </trkpt>
      <trkpt lat="43.73921" lon="3.52395">
        <ele>307.36</ele>
        <time>2017-03-19T09:17:06Z</time>
      </trkpt>
      <trkpt lat="43.73921" lon="3.5237">
        <ele>305.63</ele>
        <time>2017-03-19T09:17:22Z</time>
      </trkpt>
      <trkpt lat="43.73921" lon="3.52343">
        <ele>304.77</ele>
        <time>2017-03-19T09:17:37Z</time>
      </trkpt>
      <trkpt lat="43.73929" lon="3.52319">
        <ele>305.6</ele>
        <time>2017-03-19T09:17:56Z</time>
      </trkpt>
      <trkpt lat="43.73941" lon="3.52301">
        <ele>303.26</ele>
        <time>2017-03-19T09:18:15Z</time>
      </trkpt>
      <trkpt lat="43.73956" lon="3.52286">
        <ele>304.04</ele>
        <time>2017-03-19T09:18:34Z</time>
      </trkpt>
      <trkpt lat="43.73967" lon="3.52266">
        <ele>304.73</ele>
        <time>2017-03-19T09:18:48Z</time>
      </trkpt>
      <trkpt lat="43.73981" lon="3.5225">
        <ele>304.64</ele>
        <time>2017-03-19T09:19:00Z</time>
      </trkpt>
      <trkpt lat="43.73987" lon="3.52275">
        <ele>300.8</ele>
        <time>2017-03-19T09:20:11Z</time>
      </trkpt>
      <trkpt lat="43.73983" lon="3.52301">
        <ele>303.24</ele>
        <time>2017-03-19T09:20:29Z</time>
      </trkpt>
      <trkpt lat="43.73981" lon="3.52326">
        <ele>304.66</ele>
        <time>2017-03-19T09:20:45Z</time>
      </trkpt>
      <trkpt lat="43.73982" lon="3.52351">
        <ele>306.02</ele>
        <time>2017-03-19T09:21:00Z</time>
      </trkpt>
      <trkpt lat="43.7399" lon="3.52373">
        <ele>305.15</ele>
        <time>2017-03-19T09:21:17Z</time>
      </trkpt>
      <trkpt lat="43.73999" lon="3.52396">
        <ele>307.12</ele>
        <time>2017-03-19T09:21:38Z</time>
      </trkpt>
      <trkpt lat="43.74008" lon="3.52418">
        <ele>310.67</ele>
        <time>2017-03-19T09:21:55Z</time>
      </trkpt>
      <trkpt lat="43.74018" lon="3.52439">
        <ele>313.93</ele>
        <time>2017-03-19T09:22:18Z</time>
      </trkpt>
      <trkpt lat="43.74029" lon="3.52459">
        <ele>317.09</ele>
        <time>2017-03-19T09:22:35Z</time>
      </trkpt>
      <trkpt lat="43.74037" lon="3.52482">
        <ele>320.2</ele>
        <time>2017-03-19T09:22:55Z</time>
      </trkpt>
      <trkpt lat="43.7405" lon="3.52499">
        <ele>322.45</ele>
        <time>2017-03-19T09:23:13Z</time>
      </trkpt>
      <trkpt lat="43.74065" lon="3.52515">
        <ele>325.25</ele>
        <time>2017-03-19T09:23:34Z</time>
      </trkpt>
      <trkpt lat="43.74079" lon="3.52531">
        <ele>327.02</ele>
        <time>2017-03-19T09:23:51Z</time>
      </trkpt>
      <trkpt lat="43.74097" lon="3.52528">
        <ele>329.28</ele>
        <time>2017-03-19T09:24:08Z</time>
      </trkpt>
      <trkpt lat="43.74115" lon="3.52522">
        <ele>331.66</ele>
        <time>2017-03-19T09:24:28Z</time>
      </trkpt>
      <trkpt lat="43.74132" lon="3.52512">
        <ele>333.68</ele>
        <time>2017-03-19T09:24:44Z</time>
      </trkpt>
      <trkpt lat="43.74149" lon="3.52498">
        <ele>336.38</ele>
        <time>2017-03-19T09:25:02Z</time>
      </trkpt>
      <trkpt lat="43.74167" lon="3.52494">
        <ele>339.36</ele>
        <time>2017-03-19T09:25:30Z</time>
      </trkpt>
      <trkpt lat="43.74177" lon="3.52515">
        <ele>340.9</ele>
        <time>2017-03-19T09:25:49Z</time>
      </trkpt>
      <trkpt lat="43.74182" lon="3.5254">
        <ele>342.79</ele>
        <time>2017-03-19T09:26:07Z</time>
      </trkpt>
      <trkpt lat="43.74191" lon="3.52564">
        <ele>344.61</ele>
        <time>2017-03-19T09:26:23Z</time>
      </trkpt>
      <trkpt lat="43.74201" lon="3.52584">
        <ele>346.47</ele>
        <time>2017-03-19T09:26:41Z</time>
      </trkpt>
      <trkpt lat="43.74208" lon="3.52608">
        <ele>348.21</ele>
        <time>2017-03-19T09:27:00Z</time>
      </trkpt>
      <trkpt lat="43.74207" lon="3.52633">
        <ele>350.54</ele>
        <time>2017-03-19T09:27:23Z</time>
      </trkpt>
      <trkpt lat="43.74216" lon="3.52656">
        <ele>353.4</ele>
        <time>2017-03-19T09:27:41Z</time>
      </trkpt>
      <trkpt lat="43.74221" lon="3.52681">
        <ele>356.46</ele>
        <time>2017-03-19T09:28:02Z</time>
      </trkpt>
      <trkpt lat="43.74229" lon="3.52704">
        <ele>359.47</ele>
        <time>2017-03-19T09:28:21Z</time>
      </trkpt>
      <trkpt lat="43.74243" lon="3.52719">
        <ele>361.53</ele>
        <time>2017-03-19T09:28:42Z</time>
      </trkpt>
      <trkpt lat="43.74259" lon="3.52731">
        <ele>363.43</ele>
        <time>2017-03-19T09:29:05Z</time>
      </trkpt>
      <trkpt lat="43.74277" lon="3.52741">
        <ele>364.76</ele>
        <time>2017-03-19T09:29:25Z</time>
      </trkpt>
      <trkpt lat="43.74293" lon="3.52755">
        <ele>374.68</ele>
        <time>2017-03-19T09:30:30Z</time>
      </trkpt>
      <trkpt lat="43.74307" lon="3.52772">
        <ele>377.15</ele>
        <time>2017-03-19T09:30:53Z</time>
      </trkpt>
      <trkpt lat="43.74324" lon="3.52783">
        <ele>380.01</ele>
        <time>2017-03-19T09:31:12Z</time>
      </trkpt>
      <trkpt lat="43.7434" lon="3.52796">
        <ele>382.58</ele>
        <time>2017-03-19T09:31:32Z</time>
      </trkpt>
      <trkpt lat="43.74357" lon="3.52804">
        <ele>384.65</ele>
        <time>2017-03-19T09:31:53Z</time>
      </trkpt>
      <trkpt lat="43.74368" lon="3.52825">
        <ele>387.69</ele>
        <time>2017-03-19T09:32:15Z</time>
      </trkpt>
      <trkpt lat="43.7437" lon="3.52799">
        <ele>390.65</ele>
        <time>2017-03-19T09:32:47Z</time>
      </trkpt>
      <trkpt lat="43.74363" lon="3.52776">
        <ele>393.18</ele>
        <time>2017-03-19T09:33:08Z</time>
      </trkpt>
      <trkpt lat="43.7435" lon="3.52755">
        <ele>395.06</ele>
        <time>2017-03-19T09:33:28Z</time>
      </trkpt>
      <trkpt lat="43.74343" lon="3.52732">
        <ele>399.44</ele>
        <time>2017-03-19T09:33:54Z</time>
      </trkpt>
      <trkpt lat="43.74341" lon="3.52707">
        <ele>404.44</ele>
        <time>2017-03-19T09:34:17Z</time>
      </trkpt>
      <trkpt lat="43.74342" lon="3.52682">
        <ele>408.12</ele>
        <time>2017-03-19T09:34:38Z</time>
      </trkpt>
      <trkpt lat="43.74334" lon="3.52659">
        <ele>410.04</ele>
        <time>2017-03-19T09:34:54Z</time>
      </trkpt>
      <trkpt lat="43.74321" lon="3.52641">
        <ele>412.69</ele>
        <time>2017-03-19T09:35:15Z</time>
      </trkpt>
      <trkpt lat="43.74319" lon="3.52615">
        <ele>419.3</ele>
        <time>2017-03-19T09:38:20Z</time>
      </trkpt>
      <trkpt lat="43.7433" lon="3.52595">
        <ele>421.39</ele>
        <time>2017-03-19T09:38:40Z</time>
      </trkpt>
      <trkpt lat="43.74328" lon="3.5257">
        <ele>423.79</ele>
        <time>2017-03-19T09:38:57Z</time>
      </trkpt>
      <trkpt lat="43.74331" lon="3.52595">
        <ele>428.27</ele>
        <time>2017-03-19T09:39:25Z</time>
      </trkpt>
      <trkpt lat="43.74346" lon="3.5258">
        <ele>433.71</ele>
        <time>2017-03-19T09:40:14Z</time>
      </trkpt>
      <trkpt lat="43.74342" lon="3.52553">
        <ele>436.1</ele>
        <time>2017-03-19T09:40:31Z</time>
      </trkpt>
      <trkpt lat="43.74334" lon="3.5253">
        <ele>436.14</ele>
        <time>2017-03-19T09:40:50Z</time>
      </trkpt>
      <trkpt lat="43.74327" lon="3.52506">
        <ele>438.76</ele>
        <time>2017-03-19T09:41:13Z</time>
      </trkpt>
      <trkpt lat="43.74339" lon="3.52526">
        <ele>447.38</ele>
        <time>2017-03-19T09:41:58Z</time>
      </trkpt>
      <trkpt lat="43.74344" lon="3.52501">
        <ele>451.5</ele>
        <time>2017-03-19T09:42:35Z</time>
      </trkpt>
      <trkpt lat="43.74339" lon="3.52476">
        <ele>453.93</ele>
        <time>2017-03-19T09:42:55Z</time>
      </trkpt>
      <trkpt lat="43.7435" lon="3.52496">
        <ele>462.11</ele>
        <time>2017-03-19T09:43:41Z</time>
      </trkpt>
      <trkpt lat="43.74351" lon="3.52471">
        <ele>467.07</ele>
        <time>2017-03-19T09:44:07Z</time>
      </trkpt>
      <trkpt lat="43.74345" lon="3.52447">
        <ele>469.88</ele>
        <time>2017-03-19T09:44:27Z</time>
      </trkpt>
      <trkpt lat="43.74353" lon="3.52423">
        <ele>473.26</ele>
        <time>2017-03-19T09:44:56Z</time>
      </trkpt>
      <trkpt lat="43.74365" lon="3.52403">
        <ele>475.55</ele>
        <time>2017-03-19T09:45:16Z</time>
      </trkpt>
      <trkpt lat="43.74376" lon="3.52383">
        <ele>477.42</ele>
        <time>2017-03-19T09:45:33Z</time>
      </trkpt>
      <trkpt lat="43.74375" lon="3.52359">
        <ele>479.76</ele>
        <time>2017-03-19T09:45:52Z</time>
      </trkpt>
      <trkpt lat="43.74374" lon="3.52333">
        <ele>480.81</ele>
        <time>2017-03-19T09:46:09Z</time>
      </trkpt>
      <trkpt lat="43.74372" lon="3.52307">
        <ele>483.64</ele>
        <time>2017-03-19T09:46:33Z</time>
      </trkpt>
      <trkpt lat="43.74381" lon="3.52285">
        <ele>486.3</ele>
        <time>2017-03-19T09:46:55Z</time>
      </trkpt>
      <trkpt lat="43.74399" lon="3.5228">
        <ele>488.29</ele>
        <time>2017-03-19T09:47:36Z</time>
      </trkpt>
      <trkpt lat="43.74418" lon="3.52274">
        <ele>489.2</ele>
        <time>2017-03-19T09:47:53Z</time>
      </trkpt>
      <trkpt lat="43.74428" lon="3.52254">
        <ele>490.19</ele>
        <time>2017-03-19T09:48:09Z</time>
      </trkpt>
      <trkpt lat="43.74438" lon="3.52233">
        <ele>491.16</ele>
        <time>2017-03-19T09:48:24Z</time>
      </trkpt>
      <trkpt lat="43.74455" lon="3.52221">
        <ele>492.47</ele>
        <time>2017-03-19T09:48:39Z</time>
      </trkpt>
      <trkpt lat="43.74472" lon="3.52211">
        <ele>491.58</ele>
        <time>2017-03-19T09:48:55Z</time>
      </trkpt>
      <trkpt lat="43.74491" lon="3.52212">
        <ele>490.96</ele>
        <time>2017-03-19T09:49:09Z</time>
      </trkpt>
      <trkpt lat="43.7451" lon="3.52211">
        <ele>490.94</ele>
        <time>2017-03-19T09:49:24Z</time>
      </trkpt>
      <trkpt lat="43.74529" lon="3.52205">
        <ele>490.92</ele>
        <time>2017-03-19T09:49:38Z</time>
      </trkpt>
      <trkpt lat="43.74546" lon="3.52197">
        <ele>491.91</ele>
        <time>2017-03-19T09:49:53Z</time>
      </trkpt>
      <trkpt lat="43.74558" lon="3.52216">
        <ele>490.85</ele>
        <time>2017-03-19T09:50:13Z</time>
      </trkpt>
      <trkpt lat="43.74563" lon="3.5224">
        <ele>489.79</ele>
        <time>2017-03-19T09:50:31Z</time>
      </trkpt>
      <trkpt lat="43.74564" lon="3.52267">
        <ele>489.3</ele>
        <time>2017-03-19T09:50:47Z</time>
      </trkpt>
      <trkpt lat="43.74568" lon="3.52293">
        <ele>488.94</ele>
        <time>2017-03-19T09:51:02Z</time>
      </trkpt>
      <trkpt lat="43.74565" lon="3.52317">
        <ele>488.61</ele>
        <time>2017-03-19T09:51:18Z</time>
      </trkpt>
      <trkpt lat="43.74557" lon="3.5234">
        <ele>489.02</ele>
        <time>2017-03-19T09:52:05Z</time>
      </trkpt>
      <trkpt lat="43.74557" lon="3.52366">
        <ele>488.73</ele>
        <time>2017-03-19T09:52:20Z</time>
      </trkpt>
      <trkpt lat="43.74569" lon="3.52385">
        <ele>487.46</ele>
        <time>2017-03-19T09:52:34Z</time>
      </trkpt>
      <trkpt lat="43.74584" lon="3.524">
        <ele>486.37</ele>
        <time>2017-03-19T09:52:46Z</time>
      </trkpt>
      <trkpt lat="43.74602" lon="3.52414">
        <ele>484.55</ele>
        <time>2017-03-19T09:53:02Z</time>
      </trkpt>
      <trkpt lat="43.74594" lon="3.52438">
        <ele>482.56</ele>
        <time>2017-03-19T09:53:26Z</time>
      </trkpt>
      <trkpt lat="43.74582" lon="3.52457">
        <ele>484.3</ele>
        <time>2017-03-19T09:53:45Z</time>
      </trkpt>
      <trkpt lat="43.74572" lon="3.52478">
        <ele>485.5</ele>
        <time>2017-03-19T09:54:04Z</time>
      </trkpt>
      <trkpt lat="43.74569" lon="3.52504">
        <ele>483.64</ele>
        <time>2017-03-19T09:54:16Z</time>
      </trkpt>
      <trkpt lat="43.74566" lon="3.5253">
        <ele>481.5</ele>
        <time>2017-03-19T09:54:35Z</time>
      </trkpt>
      <trkpt lat="43.74568" lon="3.52555">
        <ele>481.82</ele>
        <time>2017-03-19T09:54:49Z</time>
      </trkpt>
      <trkpt lat="43.74568" lon="3.52581">
        <ele>480.59</ele>
        <time>2017-03-19T09:55:05Z</time>
      </trkpt>
      <trkpt lat="43.74573" lon="3.52608">
        <ele>477.93</ele>
        <time>2017-03-19T09:55:21Z</time>
      </trkpt>
      <trkpt lat="43.74576" lon="3.52633">
        <ele>475.85</ele>
        <time>2017-03-19T09:55:38Z</time>
      </trkpt>
      <trkpt lat="43.74578" lon="3.5266">
        <ele>473.54</ele>
        <time>2017-03-19T09:55:56Z</time>
      </trkpt>
      <trkpt lat="43.74583" lon="3.52684">
        <ele>473.5</ele>
        <time>2017-03-19T09:56:09Z</time>
      </trkpt>
      <trkpt lat="43.74591" lon="3.52707">
        <ele>473.15</ele>
        <time>2017-03-19T09:56:25Z</time>
      </trkpt>
      <trkpt lat="43.74607" lon="3.52721">
        <ele>473.32</ele>
        <time>2017-03-19T09:56:37Z</time>
      </trkpt>
      <trkpt lat="43.74623" lon="3.52735">
        <ele>473.37</ele>
        <time>2017-03-19T09:56:54Z</time>
      </trkpt>
      <trkpt lat="43.74638" lon="3.52752">
        <ele>472.68</ele>
        <time>2017-03-19T09:57:08Z</time>
      </trkpt>
      <trkpt lat="43.74655" lon="3.52761">
        <ele>473.34</ele>
        <time>2017-03-19T09:57:27Z</time>
      </trkpt>
      <trkpt lat="43.74675" lon="3.52765">
        <ele>475.33</ele>
        <time>2017-03-19T09:57:40Z</time>
      </trkpt>
      <trkpt lat="43.74693" lon="3.52769">
        <ele>475.63</ele>
        <time>2017-03-19T09:57:56Z</time>
      </trkpt>
      <trkpt lat="43.74709" lon="3.52784">
        <ele>475.12</ele>
        <time>2017-03-19T09:58:12Z</time>
      </trkpt>
      <trkpt lat="43.74724" lon="3.52799">
        <ele>475.1</ele>
        <time>2017-03-19T09:58:25Z</time>
      </trkpt>
      <trkpt lat="43.74739" lon="3.52813">
        <ele>475.17</ele>
        <time>2017-03-19T09:58:38Z</time>
      </trkpt>
      <trkpt lat="43.74755" lon="3.52826">
        <ele>474.31</ele>
        <time>2017-03-19T09:58:53Z</time>
      </trkpt>
      <trkpt lat="43.74773" lon="3.5283">
        <ele>475.22</ele>
        <time>2017-03-19T09:59:08Z</time>
      </trkpt>
      <trkpt lat="43.74791" lon="3.52834">
        <ele>476.22</ele>
        <time>2017-03-19T09:59:21Z</time>
      </trkpt>
      <trkpt lat="43.74808" lon="3.52846">
        <ele>475.86</ele>
        <time>2017-03-19T09:59:41Z</time>
      </trkpt>
      <trkpt lat="43.74815" lon="3.52869">
        <ele>474.64</ele>
        <time>2017-03-19T09:59:56Z</time>
      </trkpt>
      <trkpt lat="43.74819" lon="3.52894">
        <ele>473.74</ele>
        <time>2017-03-19T10:00:12Z</time>
      </trkpt>
      <trkpt lat="43.74819" lon="3.5292">
        <ele>472.52</ele>
        <time>2017-03-19T10:00:27Z</time>
      </trkpt>
      <trkpt lat="43.7482" lon="3.52945">
        <ele>471.9</ele>
        <time>2017-03-19T10:00:38Z</time>
      </trkpt>
      <trkpt lat="43.74816" lon="3.52971">
        <ele>471.13</ele>
        <time>2017-03-19T10:00:52Z</time>
      </trkpt>
      <trkpt lat="43.74797" lon="3.52965">
        <ele>471.01</ele>
        <time>2017-03-19T10:01:11Z</time>
      </trkpt>
      <trkpt lat="43.74782" lon="3.52952">
        <ele>470.44</ele>
        <time>2017-03-19T10:01:29Z</time>
      </trkpt>
      <trkpt lat="43.74763" lon="3.52948">
        <ele>469.99</ele>
        <time>2017-03-19T10:01:45Z</time>
      </trkpt>
      <trkpt lat="43.74744" lon="3.52953">
        <ele>471.04</ele>
        <time>2017-03-19T10:02:01Z</time>
      </trkpt>
      <trkpt lat="43.74734" lon="3.52974">
        <ele>474.45</ele>
        <time>2017-03-19T10:02:16Z</time>
      </trkpt>
      <trkpt lat="43.74718" lon="3.52987">
        <ele>474.5</ele>
        <time>2017-03-19T10:02:31Z</time>
      </trkpt>
      <trkpt lat="43.74699" lon="3.52984">
        <ele>473.48</ele>
        <time>2017-03-19T10:02:46Z</time>
      </trkpt>
      <trkpt lat="43.74681" lon="3.52978">
        <ele>471.46</ele>
        <time>2017-03-19T10:03:00Z</time>
      </trkpt>
      <trkpt lat="43.74663" lon="3.52976">
        <ele>470.22</ele>
        <time>2017-03-19T10:03:16Z</time>
      </trkpt>
      <trkpt lat="43.74644" lon="3.52983">
        <ele>469.22</ele>
        <time>2017-03-19T10:03:31Z</time>
      </trkpt>
      <trkpt lat="43.74638" lon="3.53008">
        <ele>469.6</ele>
        <time>2017-03-19T10:03:49Z</time>
      </trkpt>
      <trkpt lat="43.74638" lon="3.53033">
        <ele>468.27</ele>
        <time>2017-03-19T10:04:05Z</time>
      </trkpt>
      <trkpt lat="43.74639" lon="3.53059">
        <ele>467.97</ele>
        <time>2017-03-19T10:04:19Z</time>
      </trkpt>
      <trkpt lat="43.74644" lon="3.53084">
        <ele>467.67</ele>
        <time>2017-03-19T10:04:34Z</time>
      </trkpt>
      <trkpt lat="43.74643" lon="3.5311">
        <ele>467.63</ele>
        <time>2017-03-19T10:04:49Z</time>
      </trkpt>
      <trkpt lat="43.74639" lon="3.53135">
        <ele>468.52</ele>
        <time>2017-03-19T10:05:04Z</time>
      </trkpt>
      <trkpt lat="43.74633" lon="3.53159">
        <ele>469.85</ele>
        <time>2017-03-19T10:05:19Z</time>
      </trkpt>
      <trkpt lat="43.74627" lon="3.53182">
        <ele>471.39</ele>
        <time>2017-03-19T10:05:35Z</time>
      </trkpt>
      <trkpt lat="43.74637" lon="3.53204">
        <ele>471.86</ele>
        <time>2017-03-19T10:05:49Z</time>
      </trkpt>
      <trkpt lat="43.74646" lon="3.53226">
        <ele>472.93</ele>
        <time>2017-03-19T10:06:06Z</time>
      </trkpt>
      <trkpt lat="43.74643" lon="3.53251">
        <ele>474.61</ele>
        <time>2017-03-19T10:06:22Z</time>
      </trkpt>
      <trkpt lat="43.74642" lon="3.53277">
        <ele>475.53</ele>
        <time>2017-03-19T10:06:36Z</time>
      </trkpt>
      <trkpt lat="43.74648" lon="3.53302">
        <ele>476.07</ele>
        <time>2017-03-19T10:06:53Z</time>
      </trkpt>
      <trkpt lat="43.74665" lon="3.53312">
        <ele>477.33</ele>
        <time>2017-03-19T10:07:11Z</time>
      </trkpt>
      <trkpt lat="43.74683" lon="3.53308">
        <ele>478.46</ele>
        <time>2017-03-19T10:07:27Z</time>
      </trkpt>
      <trkpt lat="43.74698" lon="3.53294">
        <ele>480.33</ele>
        <time>2017-03-19T10:07:44Z</time>
      </trkpt>
      <trkpt lat="43.74716" lon="3.53287">
        <ele>480.77</ele>
        <time>2017-03-19T10:08:00Z</time>
      </trkpt>
      <trkpt lat="43.74734" lon="3.53291">
        <ele>480.83</ele>
        <time>2017-03-19T10:08:28Z</time>
      </trkpt>
      <trkpt lat="43.74753" lon="3.53297">
        <ele>481.23</ele>
        <time>2017-03-19T10:08:42Z</time>
      </trkpt>
      <trkpt lat="43.74771" lon="3.53302">
        <ele>481.2</ele>
        <time>2017-03-19T10:08:57Z</time>
      </trkpt>
      <trkpt lat="43.7479" lon="3.53309">
        <ele>480.75</ele>
        <time>2017-03-19T10:09:12Z</time>
      </trkpt>
      <trkpt lat="43.74806" lon="3.53323">
        <ele>480.93</ele>
        <time>2017-03-19T10:09:33Z</time>
      </trkpt>
      <trkpt lat="43.74824" lon="3.53323">
        <ele>482.62</ele>
        <time>2017-03-19T10:09:46Z</time>
      </trkpt>
      <trkpt lat="43.74841" lon="3.53312">
        <ele>485.62</ele>
        <time>2017-03-19T10:10:00Z</time>
      </trkpt>
      <trkpt lat="43.74859" lon="3.53303">
        <ele>487.32</ele>
        <time>2017-03-19T10:10:14Z</time>
      </trkpt>
      <trkpt lat="43.74875" lon="3.53292">
        <ele>488.08</ele>
        <time>2017-03-19T10:10:26Z</time>
      </trkpt>
      <trkpt lat="43.74889" lon="3.53273">
        <ele>489.74</ele>
        <time>2017-03-19T10:10:38Z</time>
      </trkpt>
      <trkpt lat="43.74901" lon="3.53253">
        <ele>490.02</ele>
        <time>2017-03-19T10:10:52Z</time>
      </trkpt>
      <trkpt lat="43.74919" lon="3.53258">
        <ele>487.99</ele>
        <time>2017-03-19T10:11:10Z</time>
      </trkpt>
      <trkpt lat="43.74936" lon="3.53269">
        <ele>484.95</ele>
        <time>2017-03-19T10:11:29Z</time>
      </trkpt>
      <trkpt lat="43.7495" lon="3.53286">
        <ele>484.42</ele>
        <time>2017-03-19T10:11:41Z</time>
      </trkpt>
      <trkpt lat="43.74964" lon="3.53301">
        <ele>485.47</ele>
        <time>2017-03-19T10:11:55Z</time>
      </trkpt>
      <trkpt lat="43.74983" lon="3.53304">
        <ele>488.19</ele>
        <time>2017-03-19T10:12:13Z</time>
      </trkpt>
      <trkpt lat="43.74996" lon="3.5332">
        <ele>488.03</ele>
        <time>2017-03-19T10:12:32Z</time>
      </trkpt>
      <trkpt lat="43.75008" lon="3.53341">
        <ele>486.22</ele>
        <time>2017-03-19T10:12:45Z</time>
      </trkpt>
      <trkpt lat="43.75025" lon="3.53353">
        <ele>486.71</ele>
        <time>2017-03-19T10:12:59Z</time>
      </trkpt>
      <trkpt lat="43.75043" lon="3.53349">
        <ele>491.42</ele>
        <time>2017-03-19T10:13:12Z</time>
      </trkpt>
      <trkpt lat="43.75061" lon="3.53345">
        <ele>494.98</ele>
        <time>2017-03-19T10:13:30Z</time>
      </trkpt>
      <trkpt lat="43.7508" lon="3.53343">
        <ele>494.91</ele>
        <time>2017-03-19T10:13:47Z</time>
      </trkpt>
      <trkpt lat="43.75098" lon="3.53351">
        <ele>494.12</ele>
        <time>2017-03-19T10:14:01Z</time>
      </trkpt>
      <trkpt lat="43.75116" lon="3.53339">
        <ele>497.01</ele>
        <time>2017-03-19T10:14:17Z</time>
      </trkpt>
      <trkpt lat="43.75129" lon="3.53321">
        <ele>499.61</ele>
        <time>2017-03-19T10:14:29Z</time>
      </trkpt>
      <trkpt lat="43.75147" lon="3.53321">
        <ele>498.28</ele>
        <time>2017-03-19T10:14:44Z</time>
      </trkpt>
      <trkpt lat="43.7516" lon="3.53304">
        <ele>498.32</ele>
        <time>2017-03-19T10:15:00Z</time>
      </trkpt>
      <trkpt lat="43.75174" lon="3.53287">
        <ele>496</ele>
        <time>2017-03-19T10:15:18Z</time>
      </trkpt>
      <trkpt lat="43.75184" lon="3.53307">
        <ele>490.61</ele>
        <time>2017-03-19T10:15:40Z</time>
      </trkpt>
      <trkpt lat="43.75185" lon="3.53333">
        <ele>488.69</ele>
        <time>2017-03-19T10:15:56Z</time>
      </trkpt>
      <trkpt lat="43.75183" lon="3.53358">
        <ele>486.93</ele>
        <time>2017-03-19T10:16:11Z</time>
      </trkpt>
      <trkpt lat="43.75187" lon="3.53384">
        <ele>484.86</ele>
        <time>2017-03-19T10:16:26Z</time>
      </trkpt>
      <trkpt lat="43.75198" lon="3.53408">
        <ele>483.55</ele>
        <time>2017-03-19T10:16:41Z</time>
      </trkpt>
      <trkpt lat="43.75212" lon="3.53426">
        <ele>483.52</ele>
        <time>2017-03-19T10:16:56Z</time>
      </trkpt>
      <trkpt lat="43.75228" lon="3.5344">
        <ele>483.85</ele>
        <time>2017-03-19T10:17:10Z</time>
      </trkpt>
      <trkpt lat="43.75247" lon="3.53437">
        <ele>486.14</ele>
        <time>2017-03-19T10:17:27Z</time>
      </trkpt>
      <trkpt lat="43.75258" lon="3.53417">
        <ele>488.59</ele>
        <time>2017-03-19T10:17:40Z</time>
      </trkpt>
      <trkpt lat="43.75271" lon="3.53399">
        <ele>492.23</ele>
        <time>2017-03-19T10:17:57Z</time>
      </trkpt>
      <trkpt lat="43.75289" lon="3.53394">
        <ele>494.07</ele>
        <time>2017-03-19T10:18:13Z</time>
      </trkpt>
      <trkpt lat="43.75307" lon="3.53388">
        <ele>497.12</ele>
        <time>2017-03-19T10:18:26Z</time>
      </trkpt>
      <trkpt lat="43.75321" lon="3.53369">
        <ele>497.45</ele>
        <time>2017-03-19T10:18:39Z</time>
      </trkpt>
      <trkpt lat="43.75331" lon="3.53348">
        <ele>498.02</ele>
        <time>2017-03-19T10:18:58Z</time>
      </trkpt>
      <trkpt lat="43.75341" lon="3.53327">
        <ele>495.62</ele>
        <time>2017-03-19T10:19:32Z</time>
      </trkpt>
      <trkpt lat="43.75359" lon="3.53318">
        <ele>494.3</ele>
        <time>2017-03-19T10:19:52Z</time>
      </trkpt>
      <trkpt lat="43.75375" lon="3.5333">
        <ele>491.9</ele>
        <time>2017-03-19T10:20:06Z</time>
      </trkpt>
      <trkpt lat="43.75393" lon="3.53323">
        <ele>491.89</ele>
        <time>2017-03-19T10:20:20Z</time>
      </trkpt>
      <trkpt lat="43.75404" lon="3.53303">
        <ele>493.27</ele>
        <time>2017-03-19T10:20:33Z</time>
      </trkpt>
      <trkpt lat="43.75409" lon="3.53278">
        <ele>494.13</ele>
        <time>2017-03-19T10:20:47Z</time>
      </trkpt>
      <trkpt lat="43.75423" lon="3.53262">
        <ele>493</ele>
        <time>2017-03-19T10:21:04Z</time>
      </trkpt>
      <trkpt lat="43.75439" lon="3.53274">
        <ele>491.46</ele>
        <time>2017-03-19T10:21:23Z</time>
      </trkpt>
      <trkpt lat="43.75445" lon="3.53299">
        <ele>489.2</ele>
        <time>2017-03-19T10:21:42Z</time>
      </trkpt>
      <trkpt lat="43.75446" lon="3.53325">
        <ele>488.43</ele>
        <time>2017-03-19T10:22:01Z</time>
      </trkpt>
      <trkpt lat="43.75459" lon="3.53344">
        <ele>487.79</ele>
        <time>2017-03-19T10:22:15Z</time>
      </trkpt>
      <trkpt lat="43.75474" lon="3.53358">
        <ele>488.36</ele>
        <time>2017-03-19T10:22:28Z</time>
      </trkpt>
      <trkpt lat="43.75481" lon="3.53382">
        <ele>488.59</ele>
        <time>2017-03-19T10:22:44Z</time>
      </trkpt>
      <trkpt lat="43.75488" lon="3.53406">
        <ele>488.66</ele>
        <time>2017-03-19T10:23:01Z</time>
      </trkpt>
      <trkpt lat="43.75494" lon="3.5343">
        <ele>488.85</ele>
        <time>2017-03-19T10:23:14Z</time>
      </trkpt>
      <trkpt lat="43.75506" lon="3.53454">
        <ele>489.28</ele>
        <time>2017-03-19T10:23:26Z</time>
      </trkpt>
      <trkpt lat="43.75521" lon="3.53473">
        <ele>488.99</ele>
        <time>2017-03-19T10:23:41Z</time>
      </trkpt>
      <trkpt lat="43.75536" lon="3.53487">
        <ele>489.77</ele>
        <time>2017-03-19T10:25:13Z</time>
      </trkpt>
      <trkpt lat="43.75554" lon="3.53476">
        <ele>494.34</ele>
        <time>2017-03-19T10:25:31Z</time>
      </trkpt>
      <trkpt lat="43.75561" lon="3.53452">
        <ele>499.32</ele>
        <time>2017-03-19T10:25:46Z</time>
      </trkpt>
      <trkpt lat="43.75561" lon="3.53427">
        <ele>500.82</ele>
        <time>2017-03-19T10:26:01Z</time>
      </trkpt>
      <trkpt lat="43.75565" lon="3.53401">
        <ele>502.12</ele>
        <time>2017-03-19T10:26:18Z</time>
      </trkpt>
      <trkpt lat="43.75576" lon="3.5338">
        <ele>502.91</ele>
        <time>2017-03-19T10:26:34Z</time>
      </trkpt>
      <trkpt lat="43.75589" lon="3.53362">
        <ele>504.74</ele>
        <time>2017-03-19T10:26:53Z</time>
      </trkpt>
      <trkpt lat="43.75605" lon="3.5335">
        <ele>506.99</ele>
        <time>2017-03-19T10:27:10Z</time>
      </trkpt>
      <trkpt lat="43.75622" lon="3.53338">
        <ele>509.87</ele>
        <time>2017-03-19T10:27:25Z</time>
      </trkpt>
      <trkpt lat="43.75638" lon="3.53324">
        <ele>511.17</ele>
        <time>2017-03-19T10:27:42Z</time>
      </trkpt>
      <trkpt lat="43.75656" lon="3.53316">
        <ele>512.8</ele>
        <time>2017-03-19T10:27:56Z</time>
      </trkpt>
      <trkpt lat="43.75659" lon="3.5334">
        <ele>508.02</ele>
        <time>2017-03-19T10:28:17Z</time>
      </trkpt>
      <trkpt lat="43.75653" lon="3.53365">
        <ele>505.31</ele>
        <time>2017-03-19T10:28:34Z</time>
      </trkpt>
      <trkpt lat="43.75651" lon="3.53389">
        <ele>503.51</ele>
        <time>2017-03-19T10:28:48Z</time>
      </trkpt>
      <trkpt lat="43.75662" lon="3.53412">
        <ele>502.03</ele>
        <time>2017-03-19T10:29:00Z</time>
      </trkpt>
      <trkpt lat="43.7568" lon="3.53422">
        <ele>500.51</ele>
        <time>2017-03-19T10:29:15Z</time>
      </trkpt>
      <trkpt lat="43.75697" lon="3.53431">
        <ele>499.41</ele>
        <time>2017-03-19T10:29:26Z</time>
      </trkpt>
      <trkpt lat="43.75716" lon="3.53426">
        <ele>499.78</ele>
        <time>2017-03-19T10:29:46Z</time>
      </trkpt>
      <trkpt lat="43.75729" lon="3.53408">
        <ele>497.29</ele>
        <time>2017-03-19T10:31:05Z</time>
      </trkpt>
      <trkpt lat="43.75736" lon="3.53385">
        <ele>503.12</ele>
        <time>2017-03-19T10:31:18Z</time>
      </trkpt>
      <trkpt lat="43.75746" lon="3.53362">
        <ele>508.1</ele>
        <time>2017-03-19T10:31:37Z</time>
      </trkpt>
      <trkpt lat="43.7576" lon="3.53345">
        <ele>510.58</ele>
        <time>2017-03-19T10:31:54Z</time>
      </trkpt>
      <trkpt lat="43.75779" lon="3.53346">
        <ele>509.11</ele>
        <time>2017-03-19T10:32:15Z</time>
      </trkpt>
      <trkpt lat="43.75785" lon="3.5337">
        <ele>505.53</ele>
        <time>2017-03-19T10:32:35Z</time>
      </trkpt>
      <trkpt lat="43.75792" lon="3.53393">
        <ele>504.8</ele>
        <time>2017-03-19T10:32:47Z</time>
      </trkpt>
      <trkpt lat="43.75802" lon="3.53415">
        <ele>503.35</ele>
        <time>2017-03-19T10:33:00Z</time>
      </trkpt>
      <trkpt lat="43.75816" lon="3.53431">
        <ele>502.6</ele>
        <time>2017-03-19T10:33:14Z</time>
      </trkpt>
      <trkpt lat="43.75829" lon="3.53449">
        <ele>502.35</ele>
        <time>2017-03-19T10:33:30Z</time>
      </trkpt>
      <trkpt lat="43.75834" lon="3.53473">
        <ele>502.97</ele>
        <time>2017-03-19T10:33:44Z</time>
      </trkpt>
      <trkpt lat="43.75838" lon="3.535">
        <ele>502.98</ele>
        <time>2017-03-19T10:34:00Z</time>
      </trkpt>
      <trkpt lat="43.75853" lon="3.53518">
        <ele>502.59</ele>
        <time>2017-03-19T10:34:12Z</time>
      </trkpt>
      <trkpt lat="43.75872" lon="3.53519">
        <ele>505.81</ele>
        <time>2017-03-19T10:34:29Z</time>
      </trkpt>
      <trkpt lat="43.75892" lon="3.53517">
        <ele>508.32</ele>
        <time>2017-03-19T10:34:45Z</time>
      </trkpt>
      <trkpt lat="43.75897" lon="3.53541">
        <ele>509.12</ele>
        <time>2017-03-19T10:35:06Z</time>
      </trkpt>
      <trkpt lat="43.75891" lon="3.53566">
        <ele>508.56</ele>
        <time>2017-03-19T10:35:20Z</time>
      </trkpt>
      <trkpt lat="43.75876" lon="3.53582">
        <ele>508.39</ele>
        <time>2017-03-19T10:35:38Z</time>
      </trkpt>
      <trkpt lat="43.75866" lon="3.53604">
        <ele>508.53</ele>
        <time>2017-03-19T10:35:52Z</time>
      </trkpt>
      <trkpt lat="43.75861" lon="3.53629">
        <ele>506.47</ele>
        <time>2017-03-19T10:36:08Z</time>
      </trkpt>
      <trkpt lat="43.75856" lon="3.53654">
        <ele>505.58</ele>
        <time>2017-03-19T10:36:22Z</time>
      </trkpt>
      <trkpt lat="43.75865" lon="3.53677">
        <ele>504.15</ele>
        <time>2017-03-19T10:36:31Z</time>
      </trkpt>
      <trkpt lat="43.75878" lon="3.53694">
        <ele>501.62</ele>
        <time>2017-03-19T10:36:46Z</time>
      </trkpt>
      <trkpt lat="43.75861" lon="3.53704">
        <ele>501.15</ele>
        <time>2017-03-19T10:37:10Z</time>
      </trkpt>
      <trkpt lat="43.75844" lon="3.53696">
        <ele>504.11</ele>
        <time>2017-03-19T10:37:30Z</time>
      </trkpt>
      <trkpt lat="43.75828" lon="3.53706">
        <ele>505.2</ele>
        <time>2017-03-19T10:37:44Z</time>
      </trkpt>
      <trkpt lat="43.75819" lon="3.53728">
        <ele>508.06</ele>
        <time>2017-03-19T10:38:10Z</time>
      </trkpt>
      <trkpt lat="43.75804" lon="3.53712">
        <ele>510</ele>
        <time>2017-03-19T10:38:43Z</time>
      </trkpt>
      <trkpt lat="43.758" lon="3.53688">
        <ele>512</ele>
        <time>2017-03-19T10:39:00Z</time>
      </trkpt>
      <trkpt lat="43.75792" lon="3.53665">
        <ele>512.57</ele>
        <time>2017-03-19T10:39:18Z</time>
      </trkpt>
      <trkpt lat="43.75776" lon="3.53679">
        <ele>515.32</ele>
        <time>2017-03-19T10:39:50Z</time>
      </trkpt>
      <trkpt lat="43.75773" lon="3.53703">
        <ele>522.18</ele>
        <time>2017-03-19T10:40:37Z</time>
      </trkpt>
      <trkpt lat="43.7577" lon="3.53729">
        <ele>523.7</ele>
        <time>2017-03-19T10:40:56Z</time>
      </trkpt>
      <trkpt lat="43.75768" lon="3.53754">
        <ele>525.83</ele>
        <time>2017-03-19T10:41:14Z</time>
      </trkpt>
      <trkpt lat="43.75774" lon="3.53729">
        <ele>527.85</ele>
        <time>2017-03-19T10:44:40Z</time>
      </trkpt>
      <trkpt lat="43.75775" lon="3.53704">
        <ele>527.01</ele>
        <time>2017-03-19T10:44:59Z</time>
      </trkpt>
      <trkpt lat="43.75778" lon="3.53679">
        <ele>525.3</ele>
        <time>2017-03-19T10:46:48Z</time>
      </trkpt>
      <trkpt lat="43.75795" lon="3.5369">
        <ele>521.03</ele>
        <time>2017-03-19T10:47:33Z</time>
      </trkpt>
      <trkpt lat="43.75804" lon="3.53712">
        <ele>517.66</ele>
        <time>2017-03-19T10:47:51Z</time>
      </trkpt>
      <trkpt lat="43.75813" lon="3.53732">
        <ele>517.02</ele>
        <time>2017-03-19T10:48:14Z</time>
      </trkpt>
      <trkpt lat="43.75828" lon="3.53717">
        <ele>514.3</ele>
        <time>2017-03-19T10:48:38Z</time>
      </trkpt>
      <trkpt lat="43.75846" lon="3.5371">
        <ele>512.27</ele>
        <time>2017-03-19T10:48:59Z</time>
      </trkpt>
      <trkpt lat="43.75864" lon="3.53716">
        <ele>510.81</ele>
        <time>2017-03-19T10:49:08Z</time>
      </trkpt>
      <trkpt lat="43.75882" lon="3.53707">
        <ele>508.75</ele>
        <time>2017-03-19T10:49:21Z</time>
      </trkpt>
      <trkpt lat="43.75901" lon="3.53701">
        <ele>506.52</ele>
        <time>2017-03-19T10:49:36Z</time>
      </trkpt>
      <trkpt lat="43.75917" lon="3.53689">
        <ele>505.61</ele>
        <time>2017-03-19T10:49:50Z</time>
      </trkpt>
      <trkpt lat="43.75933" lon="3.53673">
        <ele>505.2</ele>
        <time>2017-03-19T10:50:02Z</time>
      </trkpt>
      <trkpt lat="43.75948" lon="3.53658">
        <ele>504.16</ele>
        <time>2017-03-19T10:50:20Z</time>
      </trkpt>
      <trkpt lat="43.75964" lon="3.53645">
        <ele>504.02</ele>
        <time>2017-03-19T10:50:35Z</time>
      </trkpt>
      <trkpt lat="43.75978" lon="3.53628">
        <ele>504.8</ele>
        <time>2017-03-19T10:50:53Z</time>
      </trkpt>
      <trkpt lat="43.75992" lon="3.53612">
        <ele>505.71</ele>
        <time>2017-03-19T10:51:09Z</time>
      </trkpt>
      <trkpt lat="43.76008" lon="3.536">
        <ele>506.81</ele>
        <time>2017-03-19T10:51:30Z</time>
      </trkpt>
      <trkpt lat="43.76025" lon="3.5359">
        <ele>508.35</ele>
        <time>2017-03-19T10:51:55Z</time>
      </trkpt>
      <trkpt lat="43.76041" lon="3.53605">
        <ele>508.53</ele>
        <time>2017-03-19T10:52:11Z</time>
      </trkpt>
      <trkpt lat="43.76057" lon="3.53618">
        <ele>510.88</ele>
        <time>2017-03-19T10:52:35Z</time>
      </trkpt>
      <trkpt lat="43.76072" lon="3.53632">
        <ele>513.79</ele>
        <time>2017-03-19T10:52:50Z</time>
      </trkpt>
      <trkpt lat="43.76078" lon="3.53656">
        <ele>516.86</ele>
        <time>2017-03-19T10:53:14Z</time>
      </trkpt>
      <trkpt lat="43.76069" lon="3.53679">
        <ele>518.67</ele>
        <time>2017-03-19T10:53:32Z</time>
      </trkpt>
      <trkpt lat="43.7606" lon="3.53701">
        <ele>520.19</ele>
        <time>2017-03-19T10:53:46Z</time>
      </trkpt>
      <trkpt lat="43.76049" lon="3.53722">
        <ele>522.05</ele>
        <time>2017-03-19T10:54:05Z</time>
      </trkpt>
      <trkpt lat="43.76042" lon="3.53745">
        <ele>524.57</ele>
        <time>2017-03-19T10:55:06Z</time>
      </trkpt>
      <trkpt lat="43.76036" lon="3.53769">
        <ele>526.67</ele>
        <time>2017-03-19T10:55:26Z</time>
      </trkpt>
      <trkpt lat="43.76034" lon="3.53794">
        <ele>528.37</ele>
        <time>2017-03-19T10:55:42Z</time>
      </trkpt>
      <trkpt lat="43.76036" lon="3.5382">
        <ele>528.52</ele>
        <time>2017-03-19T10:55:57Z</time>
      </trkpt>
      <trkpt lat="43.76039" lon="3.53845">
        <ele>532.96</ele>
        <time>2017-03-19T10:56:26Z</time>
      </trkpt>
      <trkpt lat="43.76055" lon="3.53832">
        <ele>535.89</ele>
        <time>2017-03-19T10:56:48Z</time>
      </trkpt>
      <trkpt lat="43.76065" lon="3.53811">
        <ele>536.71</ele>
        <time>2017-03-19T10:57:17Z</time>
      </trkpt>
      <trkpt lat="43.76083" lon="3.53807">
        <ele>539.63</ele>
        <time>2017-03-19T10:57:52Z</time>
      </trkpt>
      <trkpt lat="43.76102" lon="3.53809">
        <ele>541.29</ele>
        <time>2017-03-19T10:58:12Z</time>
      </trkpt>
      <trkpt lat="43.7612" lon="3.53803">
        <ele>541.83</ele>
        <time>2017-03-19T10:58:29Z</time>
      </trkpt>
      <trkpt lat="43.76139" lon="3.53803">
        <ele>543.35</ele>
        <time>2017-03-19T10:58:58Z</time>
      </trkpt>
      <trkpt lat="43.76151" lon="3.53823">
        <ele>544.86</ele>
        <time>2017-03-19T10:59:19Z</time>
      </trkpt>
      <trkpt lat="43.7616" lon="3.53846">
        <ele>546.3</ele>
        <time>2017-03-19T10:59:37Z</time>
      </trkpt>
      <trkpt lat="43.7617" lon="3.53868">
        <ele>548.21</ele>
        <time>2017-03-19T10:59:55Z</time>
      </trkpt>
      <trkpt lat="43.76178" lon="3.53891">
        <ele>549.94</ele>
        <time>2017-03-19T11:00:11Z</time>
      </trkpt>
      <trkpt lat="43.76181" lon="3.53916">
        <ele>551.06</ele>
        <time>2017-03-19T11:00:29Z</time>
      </trkpt>
      <trkpt lat="43.76176" lon="3.53941">
        <ele>553.2</ele>
        <time>2017-03-19T11:00:47Z</time>
      </trkpt>
      <trkpt lat="43.76166" lon="3.53963">
        <ele>554.07</ele>
        <time>2017-03-19T11:01:02Z</time>
      </trkpt>
      <trkpt lat="43.76154" lon="3.53982">
        <ele>555.73</ele>
        <time>2017-03-19T11:01:20Z</time>
      </trkpt>
      <trkpt lat="43.76139" lon="3.53999">
        <ele>556.73</ele>
        <time>2017-03-19T11:01:37Z</time>
      </trkpt>
      <trkpt lat="43.76122" lon="3.5401">
        <ele>558.05</ele>
        <time>2017-03-19T11:01:55Z</time>
      </trkpt>
      <trkpt lat="43.7611" lon="3.54029">
        <ele>560.17</ele>
        <time>2017-03-19T11:02:13Z</time>
      </trkpt>
      <trkpt lat="43.76113" lon="3.54053">
        <ele>561.86</ele>
        <time>2017-03-19T11:02:30Z</time>
      </trkpt>
      <trkpt lat="43.76128" lon="3.54067">
        <ele>565.45</ele>
        <time>2017-03-19T11:02:48Z</time>
      </trkpt>
      <trkpt lat="43.7614" lon="3.54086">
        <ele>566.47</ele>
        <time>2017-03-19T11:03:08Z</time>
      </trkpt>
      <trkpt lat="43.76131" lon="3.54109">
        <ele>566.43</ele>
        <time>2017-03-19T11:03:29Z</time>
      </trkpt>
      <trkpt lat="43.76122" lon="3.54131">
        <ele>568.05</ele>
        <time>2017-03-19T11:03:51Z</time>
      </trkpt>
      <trkpt lat="43.76119" lon="3.54157">
        <ele>570.44</ele>
        <time>2017-03-19T11:04:09Z</time>
      </trkpt>
      <trkpt lat="43.76128" lon="3.54179">
        <ele>571.66</ele>
        <time>2017-03-19T11:04:42Z</time>
      </trkpt>
      <trkpt lat="43.76142" lon="3.54196">
        <ele>574.04</ele>
        <time>2017-03-19T11:05:48Z</time>
      </trkpt>
      <trkpt lat="43.7616" lon="3.54204">
        <ele>577.27</ele>
        <time>2017-03-19T11:06:07Z</time>
      </trkpt>
      <trkpt lat="43.76178" lon="3.54204">
        <ele>577.45</ele>
        <time>2017-03-19T11:06:24Z</time>
      </trkpt>
      <trkpt lat="43.76193" lon="3.5422">
        <ele>577.37</ele>
        <time>2017-03-19T11:06:45Z</time>
      </trkpt>
      <trkpt lat="43.76192" lon="3.54246">
        <ele>578.14</ele>
        <time>2017-03-19T11:07:05Z</time>
      </trkpt>
      <trkpt lat="43.76191" lon="3.54271">
        <ele>579.42</ele>
        <time>2017-03-19T11:07:19Z</time>
      </trkpt>
      <trkpt lat="43.76198" lon="3.54296">
        <ele>580.57</ele>
        <time>2017-03-19T11:07:35Z</time>
      </trkpt>
      <trkpt lat="43.76204" lon="3.54321">
        <ele>581.08</ele>
        <time>2017-03-19T11:07:52Z</time>
      </trkpt>
      <trkpt lat="43.76217" lon="3.54341">
        <ele>583.36</ele>
        <time>2017-03-19T11:08:12Z</time>
      </trkpt>
      <trkpt lat="43.76234" lon="3.54349">
        <ele>584.01</ele>
        <time>2017-03-19T11:08:27Z</time>
      </trkpt>
      <trkpt lat="43.76237" lon="3.54374">
        <ele>583.59</ele>
        <time>2017-03-19T11:08:51Z</time>
      </trkpt>
      <trkpt lat="43.76245" lon="3.54397">
        <ele>584.43</ele>
        <time>2017-03-19T11:09:10Z</time>
      </trkpt>
      <trkpt lat="43.76264" lon="3.54404">
        <ele>585.74</ele>
        <time>2017-03-19T11:09:27Z</time>
      </trkpt>
      <trkpt lat="43.76281" lon="3.54413">
        <ele>586.8</ele>
        <time>2017-03-19T11:09:47Z</time>
      </trkpt>
      <trkpt lat="43.76287" lon="3.54436">
        <ele>587.9</ele>
        <time>2017-03-19T11:10:09Z</time>
      </trkpt>
      <trkpt lat="43.76287" lon="3.54462">
        <ele>589.87</ele>
        <time>2017-03-19T11:10:26Z</time>
      </trkpt>
      <trkpt lat="43.76281" lon="3.54486">
        <ele>591.39</ele>
        <time>2017-03-19T11:10:43Z</time>
      </trkpt>
      <trkpt lat="43.76283" lon="3.54513">
        <ele>592.14</ele>
        <time>2017-03-19T11:10:59Z</time>
      </trkpt>
      <trkpt lat="43.7628" lon="3.54538">
        <ele>591.22</ele>
        <time>2017-03-19T11:11:14Z</time>
      </trkpt>
      <trkpt lat="43.76278" lon="3.54563">
        <ele>591.17</ele>
        <time>2017-03-19T11:11:32Z</time>
      </trkpt>
      <trkpt lat="43.76285" lon="3.54588">
        <ele>592.11</ele>
        <time>2017-03-19T11:11:46Z</time>
      </trkpt>
      <trkpt lat="43.76287" lon="3.54613">
        <ele>591.21</ele>
        <time>2017-03-19T11:12:06Z</time>
      </trkpt>
      <trkpt lat="43.76305" lon="3.54617">
        <ele>592.18</ele>
        <time>2017-03-19T11:12:40Z</time>
      </trkpt>
      <trkpt lat="43.76323" lon="3.54615">
        <ele>592.34</ele>
        <time>2017-03-19T11:12:58Z</time>
      </trkpt>
      <trkpt lat="43.76322" lon="3.54641">
        <ele>586.45</ele>
        <time>2017-03-19T11:33:14Z</time>
      </trkpt>
      <trkpt lat="43.76327" lon="3.54666">
        <ele>588.53</ele>
        <time>2017-03-19T11:33:30Z</time>
      </trkpt>
      <trkpt lat="43.76337" lon="3.54688">
        <ele>589.71</ele>
        <time>2017-03-19T11:33:48Z</time>
      </trkpt>
      <trkpt lat="43.76331" lon="3.54712">
        <ele>592.19</ele>
        <time>2017-03-19T11:34:06Z</time>
      </trkpt>
      <trkpt lat="43.76343" lon="3.54732">
        <ele>593.95</ele>
        <time>2017-03-19T11:34:21Z</time>
      </trkpt>
      <trkpt lat="43.76355" lon="3.5475">
        <ele>594.27</ele>
        <time>2017-03-19T11:34:35Z</time>
      </trkpt>
      <trkpt lat="43.76366" lon="3.54772">
        <ele>593.9</ele>
        <time>2017-03-19T11:34:50Z</time>
      </trkpt>
      <trkpt lat="43.76362" lon="3.54797">
        <ele>593.01</ele>
        <time>2017-03-19T11:35:06Z</time>
      </trkpt>
      <trkpt lat="43.76353" lon="3.5482">
        <ele>592.46</ele>
        <time>2017-03-19T11:35:23Z</time>
      </trkpt>
      <trkpt lat="43.76345" lon="3.54844">
        <ele>592.28</ele>
        <time>2017-03-19T11:35:35Z</time>
      </trkpt>
      <trkpt lat="43.76336" lon="3.54867">
        <ele>591.97</ele>
        <time>2017-03-19T11:35:49Z</time>
      </trkpt>
      <trkpt lat="43.76329" lon="3.5489">
        <ele>591.71</ele>
        <time>2017-03-19T11:36:03Z</time>
      </trkpt>
      <trkpt lat="43.7632" lon="3.54912">
        <ele>590.79</ele>
        <time>2017-03-19T11:36:15Z</time>
      </trkpt>
      <trkpt lat="43.76308" lon="3.54931">
        <ele>589.72</ele>
        <time>2017-03-19T11:36:33Z</time>
      </trkpt>
      <trkpt lat="43.76293" lon="3.54947">
        <ele>588.95</ele>
        <time>2017-03-19T11:36:51Z</time>
      </trkpt>
      <trkpt lat="43.76276" lon="3.54958">
        <ele>589.59</ele>
        <time>2017-03-19T11:37:07Z</time>
      </trkpt>
      <trkpt lat="43.7626" lon="3.54972">
        <ele>589.86</ele>
        <time>2017-03-19T11:37:21Z</time>
      </trkpt>
      <trkpt lat="43.76247" lon="3.5499">
        <ele>587.57</ele>
        <time>2017-03-19T11:37:35Z</time>
      </trkpt>
      <trkpt lat="43.76236" lon="3.55009">
        <ele>586.65</ele>
        <time>2017-03-19T11:37:50Z</time>
      </trkpt>
      <trkpt lat="43.76225" lon="3.5503">
        <ele>585.97</ele>
        <time>2017-03-19T11:38:04Z</time>
      </trkpt>
      <trkpt lat="43.76213" lon="3.55049">
        <ele>584.77</ele>
        <time>2017-03-19T11:38:22Z</time>
      </trkpt>
      <trkpt lat="43.76203" lon="3.55071">
        <ele>583.34</ele>
        <time>2017-03-19T11:38:40Z</time>
      </trkpt>
      <trkpt lat="43.76185" lon="3.55076">
        <ele>582.99</ele>
        <time>2017-03-19T11:38:58Z</time>
      </trkpt>
      <trkpt lat="43.76176" lon="3.55098">
        <ele>583.89</ele>
        <time>2017-03-19T11:39:16Z</time>
      </trkpt>
      <trkpt lat="43.76182" lon="3.55122">
        <ele>585.24</ele>
        <time>2017-03-19T11:39:54Z</time>
      </trkpt>
      <trkpt lat="43.76192" lon="3.55143">
        <ele>585.48</ele>
        <time>2017-03-19T11:40:14Z</time>
      </trkpt>
      <trkpt lat="43.76203" lon="3.55163">
        <ele>586.15</ele>
        <time>2017-03-19T11:41:33Z</time>
      </trkpt>
      <trkpt lat="43.76206" lon="3.55189">
        <ele>587.76</ele>
        <time>2017-03-19T11:41:49Z</time>
      </trkpt>
      <trkpt lat="43.76222" lon="3.552">
        <ele>589.5</ele>
        <time>2017-03-19T11:42:15Z</time>
      </trkpt>
      <trkpt lat="43.7624" lon="3.55198">
        <ele>589.05</ele>
        <time>2017-03-19T11:43:17Z</time>
      </trkpt>
      <trkpt lat="43.76255" lon="3.55184">
        <ele>590.28</ele>
        <time>2017-03-19T11:43:41Z</time>
      </trkpt>
      <trkpt lat="43.7627" lon="3.55169">
        <ele>591.02</ele>
        <time>2017-03-19T11:43:57Z</time>
      </trkpt>
      <trkpt lat="43.76285" lon="3.55153">
        <ele>591.07</ele>
        <time>2017-03-19T11:44:12Z</time>
      </trkpt>
      <trkpt lat="43.76302" lon="3.55142">
        <ele>592.17</ele>
        <time>2017-03-19T11:44:30Z</time>
      </trkpt>
      <trkpt lat="43.7632" lon="3.55129">
        <ele>592.72</ele>
        <time>2017-03-19T11:44:48Z</time>
      </trkpt>
      <trkpt lat="43.76336" lon="3.55115">
        <ele>592.48</ele>
        <time>2017-03-19T11:44:59Z</time>
      </trkpt>
      <trkpt lat="43.76353" lon="3.55106">
        <ele>592.26</ele>
        <time>2017-03-19T11:45:19Z</time>
      </trkpt>
      <trkpt lat="43.76371" lon="3.55102">
        <ele>592.77</ele>
        <time>2017-03-19T11:45:41Z</time>
      </trkpt>
      <trkpt lat="43.76387" lon="3.55116">
        <ele>593.13</ele>
        <time>2017-03-19T11:45:56Z</time>
      </trkpt>
      <trkpt lat="43.76404" lon="3.55123">
        <ele>593.74</ele>
        <time>2017-03-19T11:46:15Z</time>
      </trkpt>
      <trkpt lat="43.76401" lon="3.55148">
        <ele>593.59</ele>
        <time>2017-03-19T11:46:39Z</time>
      </trkpt>
      <trkpt lat="43.76413" lon="3.5517">
        <ele>592.56</ele>
        <time>2017-03-19T11:46:51Z</time>
      </trkpt>
      <trkpt lat="43.76427" lon="3.55184">
        <ele>590.84</ele>
        <time>2017-03-19T11:47:06Z</time>
      </trkpt>
      <trkpt lat="43.7644" lon="3.55203">
        <ele>590.27</ele>
        <time>2017-03-19T11:47:22Z</time>
      </trkpt>
      <trkpt lat="43.76457" lon="3.5521">
        <ele>588.8</ele>
        <time>2017-03-19T11:47:36Z</time>
      </trkpt>
      <trkpt lat="43.76473" lon="3.55225">
        <ele>587.99</ele>
        <time>2017-03-19T11:48:12Z</time>
      </trkpt>
      <trkpt lat="43.76477" lon="3.55249">
        <ele>587.99</ele>
        <time>2017-03-19T11:48:26Z</time>
      </trkpt>
      <trkpt lat="43.76492" lon="3.55264">
        <ele>587.06</ele>
        <time>2017-03-19T11:48:41Z</time>
      </trkpt>
      <trkpt lat="43.76506" lon="3.55279">
        <ele>586.72</ele>
        <time>2017-03-19T11:48:57Z</time>
      </trkpt>
      <trkpt lat="43.7652" lon="3.55296">
        <ele>586.27</ele>
        <time>2017-03-19T11:49:15Z</time>
      </trkpt>
      <trkpt lat="43.76537" lon="3.55308">
        <ele>586.92</ele>
        <time>2017-03-19T11:49:36Z</time>
      </trkpt>
      <trkpt lat="43.76553" lon="3.55319">
        <ele>587.16</ele>
        <time>2017-03-19T11:49:52Z</time>
      </trkpt>
      <trkpt lat="43.7657" lon="3.5533">
        <ele>587.54</ele>
        <time>2017-03-19T11:50:08Z</time>
      </trkpt>
      <trkpt lat="43.76584" lon="3.55345">
        <ele>587.17</ele>
        <time>2017-03-19T11:50:24Z</time>
      </trkpt>
      <trkpt lat="43.766" lon="3.55359">
        <ele>587.47</ele>
        <time>2017-03-19T11:50:43Z</time>
      </trkpt>
      <trkpt lat="43.76617" lon="3.55369">
        <ele>587.6</ele>
        <time>2017-03-19T11:50:58Z</time>
      </trkpt>
      <trkpt lat="43.76635" lon="3.55381">
        <ele>587.25</ele>
        <time>2017-03-19T11:51:11Z</time>
      </trkpt>
      <trkpt lat="43.76652" lon="3.5539">
        <ele>587.51</ele>
        <time>2017-03-19T11:51:30Z</time>
      </trkpt>
      <trkpt lat="43.76667" lon="3.55405">
        <ele>588.15</ele>
        <time>2017-03-19T11:51:47Z</time>
      </trkpt>
      <trkpt lat="43.76684" lon="3.55417">
        <ele>588.47</ele>
        <time>2017-03-19T11:52:02Z</time>
      </trkpt>
      <trkpt lat="43.76689" lon="3.55443">
        <ele>590.44</ele>
        <time>2017-03-19T11:52:23Z</time>
      </trkpt>
      <trkpt lat="43.76697" lon="3.55467">
        <ele>591.02</ele>
        <time>2017-03-19T11:52:37Z</time>
      </trkpt>
      <trkpt lat="43.76705" lon="3.5549">
        <ele>590.82</ele>
        <time>2017-03-19T11:52:57Z</time>
      </trkpt>
      <trkpt lat="43.76706" lon="3.55516">
        <ele>589.99</ele>
        <time>2017-03-19T11:55:23Z</time>
      </trkpt>
      <trkpt lat="43.76696" lon="3.5554">
        <ele>588.65</ele>
        <time>2017-03-19T11:55:39Z</time>
      </trkpt>
      <trkpt lat="43.76683" lon="3.55559">
        <ele>586.93</ele>
        <time>2017-03-19T11:56:03Z</time>
      </trkpt>
      <trkpt lat="43.76672" lon="3.55579">
        <ele>585.61</ele>
        <time>2017-03-19T11:56:18Z</time>
      </trkpt>
      <trkpt lat="43.76664" lon="3.55602">
        <ele>583.99</ele>
        <time>2017-03-19T11:56:34Z</time>
      </trkpt>
      <trkpt lat="43.76656" lon="3.55626">
        <ele>582.96</ele>
        <time>2017-03-19T11:56:49Z</time>
      </trkpt>
      <trkpt lat="43.76657" lon="3.55652">
        <ele>581.69</ele>
        <time>2017-03-19T11:57:05Z</time>
      </trkpt>
      <trkpt lat="43.76658" lon="3.55677">
        <ele>579.8</ele>
        <time>2017-03-19T11:57:25Z</time>
      </trkpt>
      <trkpt lat="43.76661" lon="3.55703">
        <ele>578.92</ele>
        <time>2017-03-19T11:57:39Z</time>
      </trkpt>
      <trkpt lat="43.76646" lon="3.55687">
        <ele>573.23</ele>
        <time>2017-03-19T11:58:16Z</time>
      </trkpt>
      <trkpt lat="43.76635" lon="3.55664">
        <ele>568.84</ele>
        <time>2017-03-19T11:58:34Z</time>
      </trkpt>
      <trkpt lat="43.76627" lon="3.55642">
        <ele>565.64</ele>
        <time>2017-03-19T11:58:49Z</time>
      </trkpt>
      <trkpt lat="43.76618" lon="3.55619">
        <ele>561.72</ele>
        <time>2017-03-19T11:59:07Z</time>
      </trkpt>
      <trkpt lat="43.76614" lon="3.55594">
        <ele>558.97</ele>
        <time>2017-03-19T11:59:20Z</time>
      </trkpt>
      <trkpt lat="43.76613" lon="3.55568">
        <ele>556.04</ele>
        <time>2017-03-19T11:59:35Z</time>
      </trkpt>
      <trkpt lat="43.76606" lon="3.55544">
        <ele>552.03</ele>
        <time>2017-03-19T11:59:50Z</time>
      </trkpt>
      <trkpt lat="43.76602" lon="3.55519">
        <ele>548.99</ele>
        <time>2017-03-19T12:00:07Z</time>
      </trkpt>
      <trkpt lat="43.76605" lon="3.55493">
        <ele>546.87</ele>
        <time>2017-03-19T12:00:21Z</time>
      </trkpt>
      <trkpt lat="43.76594" lon="3.55473">
        <ele>544.34</ele>
        <time>2017-03-19T12:00:42Z</time>
      </trkpt>
      <trkpt lat="43.76576" lon="3.55476">
        <ele>541.66</ele>
        <time>2017-03-19T12:00:55Z</time>
      </trkpt>
      <trkpt lat="43.76559" lon="3.55465">
        <ele>538.34</ele>
        <time>2017-03-19T12:01:09Z</time>
      </trkpt>
      <trkpt lat="43.76541" lon="3.55456">
        <ele>535.6</ele>
        <time>2017-03-19T12:01:24Z</time>
      </trkpt>
      <trkpt lat="43.76528" lon="3.55438">
        <ele>532.03</ele>
        <time>2017-03-19T12:01:40Z</time>
      </trkpt>
      <trkpt lat="43.7651" lon="3.55437">
        <ele>528.91</ele>
        <time>2017-03-19T12:01:56Z</time>
      </trkpt>
      <trkpt lat="43.76492" lon="3.55439">
        <ele>525.12</ele>
        <time>2017-03-19T12:02:11Z</time>
      </trkpt>
      <trkpt lat="43.76474" lon="3.55447">
        <ele>522.89</ele>
        <time>2017-03-19T12:02:23Z</time>
      </trkpt>
      <trkpt lat="43.76456" lon="3.55455">
        <ele>520.06</ele>
        <time>2017-03-19T12:02:38Z</time>
      </trkpt>
      <trkpt lat="43.76439" lon="3.5546">
        <ele>517.4</ele>
        <time>2017-03-19T12:02:52Z</time>
      </trkpt>
      <trkpt lat="43.76422" lon="3.55449">
        <ele>509.79</ele>
        <time>2017-03-19T12:03:46Z</time>
      </trkpt>
      <trkpt lat="43.76418" lon="3.55425">
        <ele>508.89</ele>
        <time>2017-03-19T12:04:02Z</time>
      </trkpt>
      <trkpt lat="43.76404" lon="3.55408">
        <ele>508.11</ele>
        <time>2017-03-19T12:04:16Z</time>
      </trkpt>
      <trkpt lat="43.76388" lon="3.55395">
        <ele>507.23</ele>
        <time>2017-03-19T12:04:29Z</time>
      </trkpt>
      <trkpt lat="43.7637" lon="3.55391">
        <ele>505.46</ele>
        <time>2017-03-19T12:04:44Z</time>
      </trkpt>
      <trkpt lat="43.76352" lon="3.55385">
        <ele>503.2</ele>
        <time>2017-03-19T12:05:00Z</time>
      </trkpt>
      <trkpt lat="43.76359" lon="3.55409">
        <ele>496.91</ele>
        <time>2017-03-19T12:05:37Z</time>
      </trkpt>
      <trkpt lat="43.76372" lon="3.55429">
        <ele>494.84</ele>
        <time>2017-03-19T12:05:52Z</time>
      </trkpt>
      <trkpt lat="43.76386" lon="3.55445">
        <ele>492.7</ele>
        <time>2017-03-19T12:06:11Z</time>
      </trkpt>
      <trkpt lat="43.76369" lon="3.55433">
        <ele>488.48</ele>
        <time>2017-03-19T12:06:32Z</time>
      </trkpt>
      <trkpt lat="43.76351" lon="3.55428">
        <ele>484.53</ele>
        <time>2017-03-19T12:06:49Z</time>
      </trkpt>
      <trkpt lat="43.76332" lon="3.55427">
        <ele>481.29</ele>
        <time>2017-03-19T12:07:03Z</time>
      </trkpt>
      <trkpt lat="43.7632" lon="3.55407">
        <ele>476.77</ele>
        <time>2017-03-19T12:07:21Z</time>
      </trkpt>
      <trkpt lat="43.76303" lon="3.55395">
        <ele>473.97</ele>
        <time>2017-03-19T12:07:38Z</time>
      </trkpt>
      <trkpt lat="43.76285" lon="3.554">
        <ele>469.79</ele>
        <time>2017-03-19T12:07:55Z</time>
      </trkpt>
      <trkpt lat="43.76271" lon="3.55417">
        <ele>467.1</ele>
        <time>2017-03-19T12:08:06Z</time>
      </trkpt>
      <trkpt lat="43.76259" lon="3.55435">
        <ele>463.01</ele>
        <time>2017-03-19T12:08:32Z</time>
      </trkpt>
      <trkpt lat="43.7624" lon="3.55437">
        <ele>460.39</ele>
        <time>2017-03-19T12:08:59Z</time>
      </trkpt>
      <trkpt lat="43.76224" lon="3.5545">
        <ele>457.14</ele>
        <time>2017-03-19T12:09:16Z</time>
      </trkpt>
      <trkpt lat="43.76207" lon="3.55459">
        <ele>454.11</ele>
        <time>2017-03-19T12:09:30Z</time>
      </trkpt>
      <trkpt lat="43.76193" lon="3.55477">
        <ele>450.59</ele>
        <time>2017-03-19T12:09:48Z</time>
      </trkpt>
      <trkpt lat="43.76179" lon="3.55494">
        <ele>447.16</ele>
        <time>2017-03-19T12:10:01Z</time>
      </trkpt>
      <trkpt lat="43.76162" lon="3.55507">
        <ele>444.17</ele>
        <time>2017-03-19T12:10:18Z</time>
      </trkpt>
      <trkpt lat="43.7615" lon="3.55527">
        <ele>441.01</ele>
        <time>2017-03-19T12:10:31Z</time>
      </trkpt>
      <trkpt lat="43.76136" lon="3.55543">
        <ele>435.92</ele>
        <time>2017-03-19T12:10:50Z</time>
      </trkpt>
      <trkpt lat="43.76118" lon="3.55552">
        <ele>432.04</ele>
        <time>2017-03-19T12:11:08Z</time>
      </trkpt>
      <trkpt lat="43.76101" lon="3.55561">
        <ele>428.62</ele>
        <time>2017-03-19T12:11:21Z</time>
      </trkpt>
      <trkpt lat="43.76086" lon="3.55577">
        <ele>425.79</ele>
        <time>2017-03-19T12:11:36Z</time>
      </trkpt>
      <trkpt lat="43.76068" lon="3.55585">
        <ele>423.31</ele>
        <time>2017-03-19T12:11:50Z</time>
      </trkpt>
      <trkpt lat="43.76054" lon="3.55602">
        <ele>420.23</ele>
        <time>2017-03-19T12:12:05Z</time>
      </trkpt>
      <trkpt lat="43.76042" lon="3.55621">
        <ele>417.49</ele>
        <time>2017-03-19T12:12:22Z</time>
      </trkpt>
      <trkpt lat="43.76031" lon="3.55641">
        <ele>415.51</ele>
        <time>2017-03-19T12:12:36Z</time>
      </trkpt>
      <trkpt lat="43.76023" lon="3.55664">
        <ele>413.39</ele>
        <time>2017-03-19T12:12:50Z</time>
      </trkpt>
      <trkpt lat="43.76026" lon="3.55689">
        <ele>411.32</ele>
        <time>2017-03-19T12:13:02Z</time>
      </trkpt>
      <trkpt lat="43.76031" lon="3.55713">
        <ele>408.37</ele>
        <time>2017-03-19T12:13:16Z</time>
      </trkpt>
      <trkpt lat="43.76033" lon="3.55738">
        <ele>405.35</ele>
        <time>2017-03-19T12:13:31Z</time>
      </trkpt>
      <trkpt lat="43.76035" lon="3.55763">
        <ele>402</ele>
        <time>2017-03-19T12:13:47Z</time>
      </trkpt>
      <trkpt lat="43.76031" lon="3.55788">
        <ele>399.24</ele>
        <time>2017-03-19T12:14:01Z</time>
      </trkpt>
      <trkpt lat="43.76024" lon="3.55812">
        <ele>396.21</ele>
        <time>2017-03-19T12:14:16Z</time>
      </trkpt>
      <trkpt lat="43.76024" lon="3.55838">
        <ele>392.22</ele>
        <time>2017-03-19T12:14:32Z</time>
      </trkpt>
      <trkpt lat="43.76017" lon="3.55861">
        <ele>388.98</ele>
        <time>2017-03-19T12:14:46Z</time>
      </trkpt>
      <trkpt lat="43.76013" lon="3.55886">
        <ele>386.09</ele>
        <time>2017-03-19T12:15:03Z</time>
      </trkpt>
      <trkpt lat="43.76005" lon="3.5591">
        <ele>383.28</ele>
        <time>2017-03-19T12:15:17Z</time>
      </trkpt>
      <trkpt lat="43.75999" lon="3.55934">
        <ele>380.17</ele>
        <time>2017-03-19T12:15:30Z</time>
      </trkpt>
      <trkpt lat="43.75993" lon="3.55959">
        <ele>377.08</ele>
        <time>2017-03-19T12:15:44Z</time>
      </trkpt>
      <trkpt lat="43.7599" lon="3.55983">
        <ele>374.88</ele>
        <time>2017-03-19T12:15:57Z</time>
      </trkpt>
      <trkpt lat="43.7598" lon="3.56005">
        <ele>371.47</ele>
        <time>2017-03-19T12:16:13Z</time>
      </trkpt>
      <trkpt lat="43.75971" lon="3.56027">
        <ele>366.84</ele>
        <time>2017-03-19T12:16:51Z</time>
      </trkpt>
      <trkpt lat="43.75959" lon="3.56048">
        <ele>364.01</ele>
        <time>2017-03-19T12:17:09Z</time>
      </trkpt>
      <trkpt lat="43.75949" lon="3.56071">
        <ele>362.34</ele>
        <time>2017-03-19T12:17:24Z</time>
      </trkpt>
      <trkpt lat="43.75938" lon="3.56091">
        <ele>360.52</ele>
        <time>2017-03-19T12:17:36Z</time>
      </trkpt>
      <trkpt lat="43.75926" lon="3.5611">
        <ele>357.8</ele>
        <time>2017-03-19T12:17:52Z</time>
      </trkpt>
      <trkpt lat="43.75915" lon="3.5613">
        <ele>356.06</ele>
        <time>2017-03-19T12:18:05Z</time>
      </trkpt>
      <trkpt lat="43.75907" lon="3.56154">
        <ele>353.86</ele>
        <time>2017-03-19T12:18:20Z</time>
      </trkpt>
      <trkpt lat="43.75897" lon="3.56176">
        <ele>351.44</ele>
        <time>2017-03-19T12:18:37Z</time>
      </trkpt>
      <trkpt lat="43.75887" lon="3.56197">
        <ele>349.07</ele>
        <time>2017-03-19T12:18:53Z</time>
      </trkpt>
      <trkpt lat="43.75903" lon="3.56208">
        <ele>341.44</ele>
        <time>2017-03-19T12:19:42Z</time>
      </trkpt>
      <trkpt lat="43.75914" lon="3.56188">
        <ele>338.23</ele>
        <time>2017-03-19T12:21:45Z</time>
      </trkpt>
      <trkpt lat="43.75896" lon="3.5619">
        <ele>339.41</ele>
        <time>2017-03-19T12:22:16Z</time>
      </trkpt>
      <trkpt lat="43.75878" lon="3.56198">
        <ele>339.06</ele>
        <time>2017-03-19T12:22:46Z</time>
      </trkpt>
      <trkpt lat="43.75863" lon="3.56184">
        <ele>338.04</ele>
        <time>2017-03-19T12:23:02Z</time>
      </trkpt>
      <trkpt lat="43.75849" lon="3.5617">
        <ele>337.02</ele>
        <time>2017-03-19T12:23:18Z</time>
      </trkpt>
      <trkpt lat="43.75836" lon="3.56188">
        <ele>336.09</ele>
        <time>2017-03-19T12:23:31Z</time>
      </trkpt>
      <trkpt lat="43.75822" lon="3.56204">
        <ele>334.59</ele>
        <time>2017-03-19T12:23:46Z</time>
      </trkpt>
      <trkpt lat="43.75825" lon="3.56179">
        <ele>330.57</ele>
        <time>2017-03-19T12:24:55Z</time>
      </trkpt>
      <trkpt lat="43.75823" lon="3.56153">
        <ele>330.34</ele>
        <time>2017-03-19T12:25:10Z</time>
      </trkpt>
      <trkpt lat="43.7582" lon="3.56127">
        <ele>329.56</ele>
        <time>2017-03-19T12:25:29Z</time>
      </trkpt>
      <trkpt lat="43.75814" lon="3.56103">
        <ele>331.91</ele>
        <time>2017-03-19T12:25:49Z</time>
      </trkpt>
      <trkpt lat="43.75806" lon="3.5608">
        <ele>333.13</ele>
        <time>2017-03-19T12:26:13Z</time>
      </trkpt>
      <trkpt lat="43.75804" lon="3.56055">
        <ele>333.78</ele>
        <time>2017-03-19T12:26:39Z</time>
      </trkpt>
      <trkpt lat="43.75799" lon="3.56031">
        <ele>334.48</ele>
        <time>2017-03-19T12:26:55Z</time>
      </trkpt>
      <trkpt lat="43.7579" lon="3.56006">
        <ele>335.96</ele>
        <time>2017-03-19T12:27:13Z</time>
      </trkpt>
      <trkpt lat="43.75776" lon="3.55989">
        <ele>336.86</ele>
        <time>2017-03-19T12:27:26Z</time>
      </trkpt>
      <trkpt lat="43.75766" lon="3.55968">
        <ele>337.21</ele>
        <time>2017-03-19T12:27:45Z</time>
      </trkpt>
      <trkpt lat="43.75754" lon="3.55949">
        <ele>337.77</ele>
        <time>2017-03-19T12:27:59Z</time>
      </trkpt>
      <trkpt lat="43.75743" lon="3.55929">
        <ele>338.51</ele>
        <time>2017-03-19T12:28:17Z</time>
      </trkpt>
      <trkpt lat="43.75734" lon="3.55907">
        <ele>338.66</ele>
        <time>2017-03-19T12:28:35Z</time>
      </trkpt>
      <trkpt lat="43.75725" lon="3.55885">
        <ele>339.52</ele>
        <time>2017-03-19T12:28:52Z</time>
      </trkpt>
      <trkpt lat="43.75714" lon="3.55864">
        <ele>340.79</ele>
        <time>2017-03-19T12:29:10Z</time>
      </trkpt>
      <trkpt lat="43.75705" lon="3.55842">
        <ele>342.03</ele>
        <time>2017-03-19T12:29:27Z</time>
      </trkpt>
      <trkpt lat="43.75703" lon="3.55816">
        <ele>343.22</ele>
        <time>2017-03-19T12:29:46Z</time>
      </trkpt>
      <trkpt lat="43.75704" lon="3.55792">
        <ele>343.85</ele>
        <time>2017-03-19T12:30:01Z</time>
      </trkpt>
      <trkpt lat="43.75707" lon="3.55766">
        <ele>343.88</ele>
        <time>2017-03-19T12:30:17Z</time>
      </trkpt>
      <trkpt lat="43.75708" lon="3.55741">
        <ele>344.01</ele>
        <time>2017-03-19T12:30:32Z</time>
      </trkpt>
      <trkpt lat="43.75699" lon="3.55717">
        <ele>344.24</ele>
        <time>2017-03-19T12:30:48Z</time>
      </trkpt>
      <trkpt lat="43.75688" lon="3.55696">
        <ele>344.57</ele>
        <time>2017-03-19T12:31:03Z</time>
      </trkpt>
      <trkpt lat="43.75687" lon="3.5567">
        <ele>344.97</ele>
        <time>2017-03-19T12:31:20Z</time>
      </trkpt>
      <trkpt lat="43.75686" lon="3.55645">
        <ele>345.38</ele>
        <time>2017-03-19T12:31:42Z</time>
      </trkpt>
      <trkpt lat="43.75688" lon="3.55618">
        <ele>346.02</ele>
        <time>2017-03-19T12:33:49Z</time>
      </trkpt>
      <trkpt lat="43.75689" lon="3.55593">
        <ele>345.59</ele>
        <time>2017-03-19T12:34:12Z</time>
      </trkpt>
      <trkpt lat="43.75687" lon="3.55568">
        <ele>344.41</ele>
        <time>2017-03-19T12:35:45Z</time>
      </trkpt>
      <trkpt lat="43.75687" lon="3.55541">
        <ele>342.16</ele>
        <time>2017-03-19T12:36:06Z</time>
      </trkpt>
      <trkpt lat="43.75681" lon="3.55515">
        <ele>340.26</ele>
        <time>2017-03-19T12:36:23Z</time>
      </trkpt>
      <trkpt lat="43.75664" lon="3.55504">
        <ele>338.36</ele>
        <time>2017-03-19T12:36:53Z</time>
      </trkpt>
      <trkpt lat="43.75672" lon="3.5548">
        <ele>335.41</ele>
        <time>2017-03-19T12:39:46Z</time>
      </trkpt>
      <trkpt lat="43.75678" lon="3.55457">
        <ele>334.13</ele>
        <time>2017-03-19T12:40:15Z</time>
      </trkpt>
      <trkpt lat="43.75681" lon="3.55432">
        <ele>332.45</ele>
        <time>2017-03-19T12:40:35Z</time>
      </trkpt>
      <trkpt lat="43.75684" lon="3.55406">
        <ele>330.01</ele>
        <time>2017-03-19T12:40:58Z</time>
      </trkpt>
      <trkpt lat="43.7568" lon="3.55381">
        <ele>327.55</ele>
        <time>2017-03-19T12:41:18Z</time>
      </trkpt>
      <trkpt lat="43.75671" lon="3.55358">
        <ele>326.32</ele>
        <time>2017-03-19T12:41:40Z</time>
      </trkpt>
      <trkpt lat="43.75653" lon="3.55353">
        <ele>326.31</ele>
        <time>2017-03-19T12:42:01Z</time>
      </trkpt>
      <trkpt lat="43.75634" lon="3.55354">
        <ele>327.4</ele>
        <time>2017-03-19T12:42:18Z</time>
      </trkpt>
      <trkpt lat="43.75614" lon="3.55355">
        <ele>326.74</ele>
        <time>2017-03-19T12:42:44Z</time>
      </trkpt>
      <trkpt lat="43.75595" lon="3.5535">
        <ele>326.52</ele>
        <time>2017-03-19T12:43:00Z</time>
      </trkpt>
      <trkpt lat="43.75577" lon="3.55352">
        <ele>327.21</ele>
        <time>2017-03-19T12:43:30Z</time>
      </trkpt>
      <trkpt lat="43.7556" lon="3.55363">
        <ele>328.11</ele>
        <time>2017-03-19T12:43:45Z</time>
      </trkpt>
      <trkpt lat="43.75544" lon="3.55376">
        <ele>329.04</ele>
        <time>2017-03-19T12:44:06Z</time>
      </trkpt>
      <trkpt lat="43.75525" lon="3.55379">
        <ele>330.58</ele>
        <time>2017-03-19T12:44:25Z</time>
      </trkpt>
      <trkpt lat="43.75507" lon="3.5538">
        <ele>330.82</ele>
        <time>2017-03-19T12:44:48Z</time>
      </trkpt>
      <trkpt lat="43.75489" lon="3.55389">
        <ele>332.46</ele>
        <time>2017-03-19T12:45:08Z</time>
      </trkpt>
      <trkpt lat="43.7547" lon="3.55397">
        <ele>332.94</ele>
        <time>2017-03-19T12:45:24Z</time>
      </trkpt>
      <trkpt lat="43.75453" lon="3.55392">
        <ele>333.89</ele>
        <time>2017-03-19T12:45:43Z</time>
      </trkpt>
      <trkpt lat="43.75436" lon="3.55379">
        <ele>334.47</ele>
        <time>2017-03-19T12:46:00Z</time>
      </trkpt>
      <trkpt lat="43.75419" lon="3.55371">
        <ele>333.73</ele>
        <time>2017-03-19T12:46:19Z</time>
      </trkpt>
      <trkpt lat="43.754" lon="3.55363">
        <ele>332.91</ele>
        <time>2017-03-19T12:46:34Z</time>
      </trkpt>
      <trkpt lat="43.75382" lon="3.5536">
        <ele>331.72</ele>
        <time>2017-03-19T12:46:53Z</time>
      </trkpt>
      <trkpt lat="43.75367" lon="3.55344">
        <ele>328.97</ele>
        <time>2017-03-19T12:47:33Z</time>
      </trkpt>
      <trkpt lat="43.7536" lon="3.55319">
        <ele>328.13</ele>
        <time>2017-03-19T12:47:53Z</time>
      </trkpt>
      <trkpt lat="43.7535" lon="3.55297">
        <ele>323.31</ele>
        <time>2017-03-19T12:48:23Z</time>
      </trkpt>
      <trkpt lat="43.75346" lon="3.55272">
        <ele>320.48</ele>
        <time>2017-03-19T12:48:41Z</time>
      </trkpt>
      <trkpt lat="43.75337" lon="3.5525">
        <ele>318.12</ele>
        <time>2017-03-19T12:48:57Z</time>
      </trkpt>
      <trkpt lat="43.75326" lon="3.55229">
        <ele>316.84</ele>
        <time>2017-03-19T12:49:12Z</time>
      </trkpt>
      <trkpt lat="43.7531" lon="3.55216">
        <ele>315.06</ele>
        <time>2017-03-19T12:49:28Z</time>
      </trkpt>
      <trkpt lat="43.75292" lon="3.55207">
        <ele>312.43</ele>
        <time>2017-03-19T12:49:45Z</time>
      </trkpt>
      <trkpt lat="43.75273" lon="3.5521">
        <ele>311.14</ele>
        <time>2017-03-19T12:50:08Z</time>
      </trkpt>
      <trkpt lat="43.75261" lon="3.55229">
        <ele>311.93</ele>
        <time>2017-03-19T12:50:25Z</time>
      </trkpt>
      <trkpt lat="43.75246" lon="3.55242">
        <ele>311.31</ele>
        <time>2017-03-19T12:50:39Z</time>
      </trkpt>
      <trkpt lat="43.75228" lon="3.55248">
        <ele>311.71</ele>
        <time>2017-03-19T12:50:55Z</time>
      </trkpt>
      <trkpt lat="43.7521" lon="3.55244">
        <ele>311.99</ele>
        <time>2017-03-19T12:51:14Z</time>
      </trkpt>
      <trkpt lat="43.75194" lon="3.55256">
        <ele>311.43</ele>
        <time>2017-03-19T12:51:29Z</time>
      </trkpt>
      <trkpt lat="43.75177" lon="3.55267">
        <ele>310.77</ele>
        <time>2017-03-19T12:51:48Z</time>
      </trkpt>
      <trkpt lat="43.75159" lon="3.55266">
        <ele>310.99</ele>
        <time>2017-03-19T12:52:05Z</time>
      </trkpt>
      <trkpt lat="43.75142" lon="3.55254">
        <ele>310.83</ele>
        <time>2017-03-19T12:52:39Z</time>
      </trkpt>
      <trkpt lat="43.75125" lon="3.55242">
        <ele>310.68</ele>
        <time>2017-03-19T12:52:55Z</time>
      </trkpt>
      <trkpt lat="43.75106" lon="3.5524">
        <ele>309.52</ele>
        <time>2017-03-19T12:53:17Z</time>
      </trkpt>
      <trkpt lat="43.75092" lon="3.55224">
        <ele>311.74</ele>
        <time>2017-03-19T12:54:20Z</time>
      </trkpt>
      <trkpt lat="43.75093" lon="3.55199">
        <ele>305.7</ele>
        <time>2017-03-19T12:56:41Z</time>
      </trkpt>
      <trkpt lat="43.75092" lon="3.55173">
        <ele>305.1</ele>
        <time>2017-03-19T12:57:02Z</time>
      </trkpt>
      <trkpt lat="43.75077" lon="3.55156">
        <ele>304.78</ele>
        <time>2017-03-19T12:57:22Z</time>
      </trkpt>
      <trkpt lat="43.75067" lon="3.55136">
        <ele>302.89</ele>
        <time>2017-03-19T12:57:38Z</time>
      </trkpt>
      <trkpt lat="43.75063" lon="3.55111">
        <ele>299.46</ele>
        <time>2017-03-19T12:58:19Z</time>
      </trkpt>
      <trkpt lat="43.75057" lon="3.55087">
        <ele>297.03</ele>
        <time>2017-03-19T12:58:44Z</time>
      </trkpt>
      <trkpt lat="43.75043" lon="3.55069">
        <ele>296.02</ele>
        <time>2017-03-19T12:59:05Z</time>
      </trkpt>
      <trkpt lat="43.75026" lon="3.55054">
        <ele>295.26</ele>
        <time>2017-03-19T12:59:20Z</time>
      </trkpt>
      <trkpt lat="43.75013" lon="3.55036">
        <ele>292.81</ele>
        <time>2017-03-19T12:59:44Z</time>
      </trkpt>
      <trkpt lat="43.74997" lon="3.55022">
        <ele>290.89</ele>
        <time>2017-03-19T13:00:09Z</time>
      </trkpt>
      <trkpt lat="43.74987" lon="3.55">
        <ele>288.29</ele>
        <time>2017-03-19T13:00:56Z</time>
      </trkpt>
      <trkpt lat="43.74999" lon="3.54979">
        <ele>286.66</ele>
        <time>2017-03-19T13:01:15Z</time>
      </trkpt>
      <trkpt lat="43.75004" lon="3.54955">
        <ele>284.61</ele>
        <time>2017-03-19T13:01:31Z</time>
      </trkpt>
      <trkpt lat="43.74986" lon="3.54947">
        <ele>285.69</ele>
        <time>2017-03-19T13:01:44Z</time>
      </trkpt>
      <trkpt lat="43.74968" lon="3.54956">
        <ele>285.85</ele>
        <time>2017-03-19T13:02:02Z</time>
      </trkpt>
      <trkpt lat="43.74952" lon="3.54969">
        <ele>286.86</ele>
        <time>2017-03-19T13:02:20Z</time>
      </trkpt>
      <trkpt lat="43.74935" lon="3.54958">
        <ele>287.78</ele>
        <time>2017-03-19T13:02:41Z</time>
      </trkpt>
      <trkpt lat="43.74924" lon="3.54936">
        <ele>290.23</ele>
        <time>2017-03-19T13:03:02Z</time>
      </trkpt>
      <trkpt lat="43.7491" lon="3.54917">
        <ele>291.91</ele>
        <time>2017-03-19T13:03:21Z</time>
      </trkpt>
      <trkpt lat="43.74894" lon="3.54905">
        <ele>293.47</ele>
        <time>2017-03-19T13:03:34Z</time>
      </trkpt>
      <trkpt lat="43.74876" lon="3.54894">
        <ele>295.34</ele>
        <time>2017-03-19T13:03:51Z</time>
      </trkpt>
      <trkpt lat="43.74858" lon="3.54892">
        <ele>299.1</ele>
        <time>2017-03-19T13:04:14Z</time>
      </trkpt>
      <trkpt lat="43.7484" lon="3.5489">
        <ele>301.95</ele>
        <time>2017-03-19T13:04:37Z</time>
      </trkpt>
      <trkpt lat="43.7482" lon="3.54891">
        <ele>306.37</ele>
        <time>2017-03-19T13:04:58Z</time>
      </trkpt>
      <trkpt lat="43.74801" lon="3.54888">
        <ele>308.93</ele>
        <time>2017-03-19T13:05:20Z</time>
      </trkpt>
      <trkpt lat="43.74782" lon="3.5489">
        <ele>309.36</ele>
        <time>2017-03-19T13:05:37Z</time>
      </trkpt>
      <trkpt lat="43.74764" lon="3.54886">
        <ele>310.84</ele>
        <time>2017-03-19T13:05:56Z</time>
      </trkpt>
      <trkpt lat="43.74744" lon="3.54882">
        <ele>311.62</ele>
        <time>2017-03-19T13:06:14Z</time>
      </trkpt>
      <trkpt lat="43.74726" lon="3.54887">
        <ele>312.42</ele>
        <time>2017-03-19T13:06:30Z</time>
      </trkpt>
      <trkpt lat="43.7471" lon="3.54901">
        <ele>311.41</ele>
        <time>2017-03-19T13:06:51Z</time>
      </trkpt>
      <trkpt lat="43.74692" lon="3.54903">
        <ele>309.12</ele>
        <time>2017-03-19T13:07:12Z</time>
      </trkpt>
      <trkpt lat="43.74673" lon="3.54904">
        <ele>308.22</ele>
        <time>2017-03-19T13:07:27Z</time>
      </trkpt>
      <trkpt lat="43.74655" lon="3.54911">
        <ele>305.78</ele>
        <time>2017-03-19T13:07:44Z</time>
      </trkpt>
      <trkpt lat="43.74636" lon="3.54907">
        <ele>301.72</ele>
        <time>2017-03-19T13:08:08Z</time>
      </trkpt>
      <trkpt lat="43.7462" lon="3.54893">
        <ele>297.97</ele>
        <time>2017-03-19T13:08:33Z</time>
      </trkpt>
      <trkpt lat="43.74611" lon="3.54871">
        <ele>295.25</ele>
        <time>2017-03-19T13:08:53Z</time>
      </trkpt>
      <trkpt lat="43.74595" lon="3.54858">
        <ele>292.45</ele>
        <time>2017-03-19T13:09:10Z</time>
      </trkpt>
      <trkpt lat="43.74577" lon="3.54866">
        <ele>290.49</ele>
        <time>2017-03-19T13:09:24Z</time>
      </trkpt>
      <trkpt lat="43.7456" lon="3.54876">
        <ele>289.64</ele>
        <time>2017-03-19T13:09:42Z</time>
      </trkpt>
      <trkpt lat="43.74541" lon="3.54875">
        <ele>289.49</ele>
        <time>2017-03-19T13:10:02Z</time>
      </trkpt>
      <trkpt lat="43.74529" lon="3.54856">
        <ele>289.13</ele>
        <time>2017-03-19T13:10:22Z</time>
      </trkpt>
      <trkpt lat="43.74518" lon="3.54836">
        <ele>288.43</ele>
        <time>2017-03-19T13:10:43Z</time>
      </trkpt>
      <trkpt lat="43.74524" lon="3.54811">
        <ele>287.07</ele>
        <time>2017-03-19T13:11:03Z</time>
      </trkpt>
      <trkpt lat="43.74526" lon="3.54786">
        <ele>283.24</ele>
        <time>2017-03-19T13:11:36Z</time>
      </trkpt>
      <trkpt lat="43.74528" lon="3.5476">
        <ele>281.35</ele>
        <time>2017-03-19T13:11:53Z</time>
      </trkpt>
      <trkpt lat="43.74526" lon="3.54734">
        <ele>278.89</ele>
        <time>2017-03-19T13:12:16Z</time>
      </trkpt>
      <trkpt lat="43.74518" lon="3.54711">
        <ele>276.42</ele>
        <time>2017-03-19T13:12:35Z</time>
      </trkpt>
      <trkpt lat="43.74505" lon="3.54692">
        <ele>273.99</ele>
        <time>2017-03-19T13:12:52Z</time>
      </trkpt>
      <trkpt lat="43.745" lon="3.54667">
        <ele>270.23</ele>
        <time>2017-03-19T13:13:11Z</time>
      </trkpt>
      <trkpt lat="43.74491" lon="3.54645">
        <ele>268.86</ele>
        <time>2017-03-19T13:13:32Z</time>
      </trkpt>
      <trkpt lat="43.74473" lon="3.5465">
        <ele>268.79</ele>
        <time>2017-03-19T13:13:54Z</time>
      </trkpt>
      <trkpt lat="43.74457" lon="3.54662">
        <ele>270.34</ele>
        <time>2017-03-19T13:14:12Z</time>
      </trkpt>
      <trkpt lat="43.74444" lon="3.5468">
        <ele>271.89</ele>
        <time>2017-03-19T13:14:32Z</time>
      </trkpt>
      <trkpt lat="43.7443" lon="3.54697">
        <ele>273.23</ele>
        <time>2017-03-19T13:14:52Z</time>
      </trkpt>
      <trkpt lat="43.74412" lon="3.54704">
        <ele>275.72</ele>
        <time>2017-03-19T13:15:13Z</time>
      </trkpt>
      <trkpt lat="43.744" lon="3.54685">
        <ele>279.78</ele>
        <time>2017-03-19T13:15:40Z</time>
      </trkpt>
      <trkpt lat="43.74383" lon="3.54677">
        <ele>282.33</ele>
        <time>2017-03-19T13:15:56Z</time>
      </trkpt>
      <trkpt lat="43.74367" lon="3.54664">
        <ele>284.54</ele>
        <time>2017-03-19T13:16:13Z</time>
      </trkpt>
      <trkpt lat="43.7435" lon="3.54653">
        <ele>286.36</ele>
        <time>2017-03-19T13:16:31Z</time>
      </trkpt>
      <trkpt lat="43.74331" lon="3.54647">
        <ele>287.66</ele>
        <time>2017-03-19T13:16:49Z</time>
      </trkpt>
      <trkpt lat="43.74314" lon="3.54637">
        <ele>288.7</ele>
        <time>2017-03-19T13:17:06Z</time>
      </trkpt>
      <trkpt lat="43.74296" lon="3.54634">
        <ele>289.96</ele>
        <time>2017-03-19T13:17:23Z</time>
      </trkpt>
      <trkpt lat="43.74277" lon="3.5463">
        <ele>289.98</ele>
        <time>2017-03-19T13:17:37Z</time>
      </trkpt>
      <trkpt lat="43.74259" lon="3.54627">
        <ele>290.96</ele>
        <time>2017-03-19T13:17:54Z</time>
      </trkpt>
      <trkpt lat="43.74241" lon="3.54623">
        <ele>291.37</ele>
        <time>2017-03-19T13:18:15Z</time>
      </trkpt>
      <trkpt lat="43.74221" lon="3.5462">
        <ele>291.19</ele>
        <time>2017-03-19T13:18:32Z</time>
      </trkpt>
      <trkpt lat="43.74205" lon="3.54607">
        <ele>291.31</ele>
        <time>2017-03-19T13:18:54Z</time>
      </trkpt>
      <trkpt lat="43.7419" lon="3.54593">
        <ele>291.87</ele>
        <time>2017-03-19T13:19:10Z</time>
      </trkpt>
      <trkpt lat="43.74177" lon="3.54574">
        <ele>291.15</ele>
        <time>2017-03-19T13:19:37Z</time>
      </trkpt>
      <trkpt lat="43.74168" lon="3.54553">
        <ele>289.68</ele>
        <time>2017-03-19T13:19:56Z</time>
      </trkpt>
      <trkpt lat="43.74157" lon="3.54532">
        <ele>288.11</ele>
        <time>2017-03-19T13:20:12Z</time>
      </trkpt>
      <trkpt lat="43.74151" lon="3.54507">
        <ele>286.4</ele>
        <time>2017-03-19T13:20:30Z</time>
      </trkpt>
      <trkpt lat="43.74157" lon="3.54483">
        <ele>284.58</ele>
        <time>2017-03-19T13:20:48Z</time>
      </trkpt>
      <trkpt lat="43.74153" lon="3.54457">
        <ele>283.26</ele>
        <time>2017-03-19T13:21:04Z</time>
      </trkpt>
      <trkpt lat="43.74142" lon="3.54437">
        <ele>281.65</ele>
        <time>2017-03-19T13:21:19Z</time>
      </trkpt>
      <trkpt lat="43.7414" lon="3.54412">
        <ele>278.53</ele>
        <time>2017-03-19T13:22:16Z</time>
      </trkpt>
      <trkpt lat="43.74138" lon="3.54387">
        <ele>277.26</ele>
        <time>2017-03-19T13:22:35Z</time>
      </trkpt>
      <trkpt lat="43.74141" lon="3.54362">
        <ele>276.08</ele>
        <time>2017-03-19T13:22:50Z</time>
      </trkpt>
      <trkpt lat="43.74143" lon="3.54337">
        <ele>275.63</ele>
        <time>2017-03-19T13:23:08Z</time>
      </trkpt>
      <trkpt lat="43.7413" lon="3.54318">
        <ele>270.88</ele>
        <time>2017-03-19T13:23:46Z</time>
      </trkpt>
      <trkpt lat="43.74115" lon="3.54333">
        <ele>268.78</ele>
        <time>2017-03-19T13:24:05Z</time>
      </trkpt>
      <trkpt lat="43.74106" lon="3.54356">
        <ele>266.14</ele>
        <time>2017-03-19T13:24:23Z</time>
      </trkpt>
      <trkpt lat="43.74093" lon="3.54374">
        <ele>262.96</ele>
        <time>2017-03-19T13:24:40Z</time>
      </trkpt>
      <trkpt lat="43.74088" lon="3.54399">
        <ele>259.81</ele>
        <time>2017-03-19T13:25:04Z</time>
      </trkpt>
      <trkpt lat="43.74079" lon="3.54422">
        <ele>256.79</ele>
        <time>2017-03-19T13:25:21Z</time>
      </trkpt>
      <trkpt lat="43.74068" lon="3.54442">
        <ele>254.16</ele>
        <time>2017-03-19T13:25:40Z</time>
      </trkpt>
      <trkpt lat="43.7405" lon="3.54443">
        <ele>253.31</ele>
        <time>2017-03-19T13:25:55Z</time>
      </trkpt>
      <trkpt lat="43.74033" lon="3.54456">
        <ele>252.49</ele>
        <time>2017-03-19T13:26:09Z</time>
      </trkpt>
      <trkpt lat="43.74025" lon="3.54479">
        <ele>250.77</ele>
        <time>2017-03-19T13:26:30Z</time>
      </trkpt>
      <trkpt lat="43.74021" lon="3.54506">
        <ele>250.25</ele>
        <time>2017-03-19T13:26:46Z</time>
      </trkpt>
      <trkpt lat="43.74023" lon="3.54532">
        <ele>249.54</ele>
        <time>2017-03-19T13:27:00Z</time>
      </trkpt>
      <trkpt lat="43.74021" lon="3.54558">
        <ele>248.83</ele>
        <time>2017-03-19T13:27:15Z</time>
      </trkpt>
      <trkpt lat="43.74016" lon="3.54582">
        <ele>246.88</ele>
        <time>2017-03-19T13:27:33Z</time>
      </trkpt>
      <trkpt lat="43.74002" lon="3.54599">
        <ele>246.11</ele>
        <time>2017-03-19T13:27:51Z</time>
      </trkpt>
      <trkpt lat="43.73988" lon="3.54616">
        <ele>245.09</ele>
        <time>2017-03-19T13:28:06Z</time>
      </trkpt>
      <trkpt lat="43.73977" lon="3.54636">
        <ele>244.24</ele>
        <time>2017-03-19T13:28:19Z</time>
      </trkpt>
      <trkpt lat="43.73962" lon="3.54653">
        <ele>243.05</ele>
        <time>2017-03-19T13:28:36Z</time>
      </trkpt>
      <trkpt lat="43.73949" lon="3.54671">
        <ele>241.75</ele>
        <time>2017-03-19T13:28:52Z</time>
      </trkpt>
      <trkpt lat="43.73934" lon="3.54687">
        <ele>240.97</ele>
        <time>2017-03-19T13:29:08Z</time>
      </trkpt>
      <trkpt lat="43.73921" lon="3.54706">
        <ele>239.95</ele>
        <time>2017-03-19T13:29:24Z</time>
      </trkpt>
      <trkpt lat="43.73908" lon="3.54723">
        <ele>239.31</ele>
        <time>2017-03-19T13:29:38Z</time>
      </trkpt>
      <trkpt lat="43.73902" lon="3.54747">
        <ele>237.88</ele>
        <time>2017-03-19T13:29:55Z</time>
      </trkpt>
      <trkpt lat="43.73889" lon="3.54766">
        <ele>236.47</ele>
        <time>2017-03-19T13:30:13Z</time>
      </trkpt>
      <trkpt lat="43.73874" lon="3.54781">
        <ele>234.68</ele>
        <time>2017-03-19T13:30:29Z</time>
      </trkpt>
      <trkpt lat="43.73863" lon="3.54801">
        <ele>233.55</ele>
        <time>2017-03-19T13:30:42Z</time>
      </trkpt>
      <trkpt lat="43.73851" lon="3.54821">
        <ele>231.09</ele>
        <time>2017-03-19T13:30:58Z</time>
      </trkpt>
      <trkpt lat="43.73839" lon="3.5484">
        <ele>227.91</ele>
        <time>2017-03-19T13:31:19Z</time>
      </trkpt>
      <trkpt lat="43.7383" lon="3.54861">
        <ele>224.42</ele>
        <time>2017-03-19T13:31:49Z</time>
      </trkpt>
      <trkpt lat="43.73817" lon="3.54879">
        <ele>221.36</ele>
        <time>2017-03-19T13:32:14Z</time>
      </trkpt>
      <trkpt lat="43.73799" lon="3.54872">
        <ele>212.51</ele>
        <time>2017-03-19T13:34:21Z</time>
      </trkpt>
      <trkpt lat="43.73783" lon="3.54887">
        <ele>210.56</ele>
        <time>2017-03-19T13:34:38Z</time>
      </trkpt>
      <trkpt lat="43.73772" lon="3.54907">
        <ele>207.71</ele>
        <time>2017-03-19T13:34:52Z</time>
      </trkpt>
      <trkpt lat="43.73777" lon="3.54883">
        <ele>203.3</ele>
        <time>2017-03-19T13:35:19Z</time>
      </trkpt>
      <trkpt lat="43.73785" lon="3.54861">
        <ele>201.95</ele>
        <time>2017-03-19T13:35:33Z</time>
      </trkpt>
      <trkpt lat="43.73791" lon="3.54836">
        <ele>200.65</ele>
        <time>2017-03-19T13:35:47Z</time>
      </trkpt>
      <trkpt lat="43.73794" lon="3.54811">
        <ele>199.2</ele>
        <time>2017-03-19T13:35:58Z</time>
      </trkpt>
      <trkpt lat="43.73792" lon="3.54785">
        <ele>196.12</ele>
        <time>2017-03-19T13:36:11Z</time>
      </trkpt>
      <trkpt lat="43.73784" lon="3.54761">
        <ele>193.08</ele>
        <time>2017-03-19T13:36:23Z</time>
      </trkpt>
      <trkpt lat="43.73775" lon="3.54784">
        <ele>183.67</ele>
        <time>2017-03-19T13:37:05Z</time>
      </trkpt>
      <trkpt lat="43.73771" lon="3.54808">
        <ele>181.58</ele>
        <time>2017-03-19T13:37:20Z</time>
      </trkpt>
      <trkpt lat="43.73757" lon="3.54825">
        <ele>179.89</ele>
        <time>2017-03-19T13:37:37Z</time>
      </trkpt>
      <trkpt lat="43.7374" lon="3.54833">
        <ele>177.94</ele>
        <time>2017-03-19T13:37:51Z</time>
      </trkpt>
      <trkpt lat="43.73727" lon="3.54852">
        <ele>175.71</ele>
        <time>2017-03-19T13:38:04Z</time>
      </trkpt>
      <trkpt lat="43.73712" lon="3.54868">
        <ele>167.4</ele>
        <time>2017-03-19T13:38:43Z</time>
      </trkpt>
      <trkpt lat="43.73695" lon="3.54879">
        <ele>164.27</ele>
        <time>2017-03-19T13:39:01Z</time>
      </trkpt>
      <trkpt lat="43.73677" lon="3.54886">
        <ele>160.89</ele>
        <time>2017-03-19T13:39:15Z</time>
      </trkpt>
      <trkpt lat="43.7366" lon="3.54892">
        <ele>158.7</ele>
        <time>2017-03-19T13:39:27Z</time>
      </trkpt>
      <trkpt lat="43.73641" lon="3.54894">
        <ele>154.68</ele>
        <time>2017-03-19T13:39:46Z</time>
      </trkpt>
      <trkpt lat="43.73625" lon="3.54884">
        <ele>151.38</ele>
        <time>2017-03-19T13:40:03Z</time>
      </trkpt>
      <trkpt lat="43.73607" lon="3.54874">
        <ele>147.51</ele>
        <time>2017-03-19T13:40:20Z</time>
      </trkpt>
      <trkpt lat="43.73589" lon="3.54875">
        <ele>144.52</ele>
        <time>2017-03-19T13:40:31Z</time>
      </trkpt>
      <trkpt lat="43.73571" lon="3.54887">
        <ele>139.98</ele>
        <time>2017-03-19T13:40:45Z</time>
      </trkpt>
      <trkpt lat="43.73584" lon="3.5487">
        <ele>134.32</ele>
        <time>2017-03-19T13:41:15Z</time>
      </trkpt>
      <trkpt lat="43.73596" lon="3.5485">
        <ele>132.58</ele>
        <time>2017-03-19T13:41:32Z</time>
      </trkpt>
      <trkpt lat="43.73579" lon="3.54841">
        <ele>130.46</ele>
        <time>2017-03-19T13:41:48Z</time>
      </trkpt>
      <trkpt lat="43.73559" lon="3.5484">
        <ele>125.83</ele>
        <time>2017-03-19T13:42:09Z</time>
      </trkpt>
      <trkpt lat="43.73543" lon="3.54828">
        <ele>123.01</ele>
        <time>2017-03-19T13:42:21Z</time>
      </trkpt>
      <trkpt lat="43.73526" lon="3.54814">
        <ele>119.95</ele>
        <time>2017-03-19T13:42:36Z</time>
      </trkpt>
    </trkseg>
  </trk>
</gpx>